Time,TemperatureF,DewpointF,PressureIn,WindDirection,WindDirectionDegrees,WindSpeedMPH,WindSpeedGustMPH,Humidity,HourlyPrecipIn,Conditions,Clouds,dailyrainin,SoftwareType,DateUTC
2013-08-10 00:01:00,67.6,65.5,29.76,WNW,296,0.0,1.0,93,0.00,,,0.18,Wunderground v.1.15,2013-08-10 04:01:00,
2013-08-10 00:02:00,67.6,65.5,29.76,South,179,0.0,1.0,93,0.00,,,0.18,Wunderground v.1.15,2013-08-10 04:02:00,
2013-08-10 00:03:00,67.6,65.5,29.76,SW,229,2.0,2.0,93,0.00,,,0.18,Wunderground v.1.15,2013-08-10 04:03:00,
2013-08-10 00:04:00,67.5,65.4,29.76,SW,229,0.0,2.0,93,0.00,,,0.18,Wunderground v.1.15,2013-08-10 04:04:00,
2013-08-10 00:07:00,67.5,65.4,29.76,SE,126,0.0,2.0,93,0.00,,,0.00,Wunderground v.1.15,2013-08-10 04:07:00,
2013-08-10 00:08:00,67.4,65.3,29.76,WSW,244,1.0,2.0,93,0.00,,,0.00,Wunderground v.1.15,2013-08-10 04:08:00,
2013-08-10 00:10:00,67.4,65.3,29.76,West,261,0.0,0.0,93,0.00,,,0.00,Wunderground v.1.15,2013-08-10 04:10:00,
2013-08-10 00:13:00,67.4,65.6,29.76,WNW,301,2.0,2.0,94,0.00,,,0.00,Wunderground v.1.15,2013-08-10 04:13:00,
2013-08-10 00:14:00,67.4,65.6,29.76,SSE,165,4.0,4.0,94,0.00,,,0.00,Wunderground v.1.15,2013-08-10 04:14:00,
2013-08-10 00:18:00,67.3,65.5,29.76,South,170,2.0,4.0,94,0.00,,,0.00,Wunderground v.1.15,2013-08-10 04:18:00,
2013-08-10 00:19:00,67.3,65.5,29.76,SSE,159,0.0,4.0,94,0.00,,,0.00,Wunderground v.1.15,2013-08-10 04:19:00,
2013-08-10 00:21:00,67.3,65.5,29.76,SSE,160,2.0,2.0,94,0.00,,,0.00,Wunderground v.1.15,2013-08-10 04:21:00,
2013-08-10 00:22:00,67.3,65.5,29.76,South,180,3.0,3.0,94,0.00,,,0.00,Wunderground v.1.15,2013-08-10 04:22:00,
2013-08-10 00:26:00,67.2,65.1,29.76,South,184,3.0,3.0,93,0.00,,,0.00,Wunderground v.1.15,2013-08-10 04:26:00,
2013-08-10 00:27:00,67.2,65.1,29.76,ESE,123,2.0,3.0,93,0.00,,,0.00,Wunderground v.1.15,2013-08-10 04:27:00,
2013-08-10 00:28:00,67.2,65.1,29.76,WNW,297,2.0,3.0,93,0.00,,,0.00,Wunderground v.1.15,2013-08-10 04:28:00,
2013-08-10 00:32:00,67.2,65.1,29.76,South,177,2.0,2.0,93,0.00,,,0.00,Wunderground v.1.15,2013-08-10 04:32:00,
2013-08-10 00:34:00,67.2,65.1,29.76,SSW,200,0.0,2.0,93,0.00,,,0.00,Wunderground v.1.15,2013-08-10 04:34:00,
2013-08-10 00:37:00,67.2,65.1,29.75,South,171,0.0,8.0,93,0.00,,,0.00,Wunderground v.1.15,2013-08-10 04:37:00,
2013-08-10 00:39:00,67.2,65.1,29.76,West,269,2.0,8.0,93,0.00,,,0.00,Wunderground v.1.15,2013-08-10 04:39:00,
2013-08-10 00:40:00,67.2,65.1,29.76,West,273,1.0,1.0,93,0.00,,,0.00,Wunderground v.1.15,2013-08-10 04:40:00,
2013-08-10 00:42:00,67.1,65.0,29.76,SW,221,0.0,2.0,93,0.00,,,0.00,Wunderground v.1.15,2013-08-10 04:42:00,
2013-08-10 00:44:00,67.1,65.0,29.76,West,275,1.0,3.0,93,0.00,,,0.00,Wunderground v.1.15,2013-08-10 04:44:00,
2013-08-10 00:47:00,67.1,65.0,29.76,West,263,2.0,6.0,93,0.00,,,0.00,Wunderground v.1.15,2013-08-10 04:47:00,
2013-08-10 00:48:00,67.1,65.0,29.76,West,263,2.0,6.0,93,0.00,,,0.00,Wunderground v.1.15,2013-08-10 04:48:00,
2013-08-10 00:50:00,67.0,64.9,29.76,West,265,0.0,1.0,93,0.00,,,0.00,Wunderground v.1.15,2013-08-10 04:50:00,
2013-08-10 00:51:00,66.9,64.8,29.76,WNW,283,0.0,1.0,93,0.00,,,0.00,Wunderground v.1.15,2013-08-10 04:51:00,
2013-08-10 00:53:00,66.9,64.8,29.76,SE,146,5.0,5.0,93,0.00,,,0.00,Wunderground v.1.15,2013-08-10 04:53:00,
2013-08-10 00:55:00,66.8,64.7,29.76,WSW,243,0.0,5.0,93,0.00,,,0.00,Wunderground v.1.15,2013-08-10 04:55:00,
2013-08-10 00:59:00,66.8,64.7,29.76,WSW,239,5.0,5.0,93,0.00,,,0.00,Wunderground v.1.15,2013-08-10 04:59:00,
2013-08-10 01:00:00,66.7,64.6,29.76,West,265,3.0,3.0,93,0.00,,,0.00,Wunderground v.1.15,2013-08-10 05:00:00,
2013-08-10 01:01:00,66.7,64.6,29.76,WNW,301,2.0,3.0,93,0.00,,,0.00,Wunderground v.1.15,2013-08-10 05:01:00,
2013-08-10 01:05:00,66.6,64.5,29.76,WSW,251,0.0,3.0,93,0.00,,,0.00,Wunderground v.1.15,2013-08-10 05:05:00,
2013-08-10 01:06:00,66.6,64.5,29.76,NW,315,5.0,5.0,93,0.00,,,0.00,Wunderground v.1.15,2013-08-10 05:06:00,
2013-08-10 01:07:00,66.6,64.5,29.76,WSW,240,0.0,5.0,93,0.00,,,0.00,Wunderground v.1.15,2013-08-10 05:07:00,
2013-08-10 01:12:00,66.4,64.3,29.76,South,178,5.0,5.0,93,0.00,,,0.00,Wunderground v.1.15,2013-08-10 05:12:00,
2013-08-10 01:15:00,66.3,64.2,29.76,WNW,288,4.0,5.0,93,0.00,,,0.00,Wunderground v.1.15,2013-08-10 05:15:00,
2013-08-10 01:16:00,66.3,64.2,29.76,SSE,151,0.0,5.0,93,0.00,,,0.00,Wunderground v.1.15,2013-08-10 05:16:00,
2013-08-10 01:17:00,66.3,64.2,29.76,SW,233,4.0,5.0,93,0.00,,,0.00,Wunderground v.1.15,2013-08-10 05:17:00,
2013-08-10 01:20:00,66.2,64.1,29.76,South,171,1.0,2.0,93,0.00,,,0.00,Wunderground v.1.15,2013-08-10 05:20:00,
2013-08-10 01:24:00,66.0,63.9,29.76,WSW,248,1.0,10.0,93,0.00,,,0.00,Wunderground v.1.15,2013-08-10 05:24:00,
2013-08-10 01:25:00,66.0,63.9,29.76,SSE,163,2.0,10.0,93,0.00,,,0.00,Wunderground v.1.15,2013-08-10 05:25:00,
2013-08-10 01:26:00,66.0,63.9,29.76,WSW,248,0.0,10.0,93,0.00,,,0.00,Wunderground v.1.15,2013-08-10 05:26:00,
2013-08-10 01:29:00,65.8,63.7,29.76,WSW,250,7.0,10.0,93,0.00,,,0.00,Wunderground v.1.15,2013-08-10 05:29:00,
2013-08-10 01:31:00,65.7,63.3,29.76,East,84,6.0,6.0,92,0.00,,,0.00,Wunderground v.1.15,2013-08-10 05:31:00,
2013-08-10 01:32:00,65.7,63.3,29.76,SSW,204,8.0,8.0,92,0.00,,,0.00,Wunderground v.1.15,2013-08-10 05:32:00,
2013-08-10 01:33:00,65.7,63.3,29.76,SW,229,5.0,8.0,92,0.00,,,0.00,Wunderground v.1.15,2013-08-10 05:33:00,
2013-08-10 01:37:00,65.7,63.3,29.76,South,171,1.0,10.0,92,0.00,,,0.00,Wunderground v.1.15,2013-08-10 05:37:00,
2013-08-10 01:38:00,65.6,63.2,29.76,WSW,248,2.0,10.0,92,0.00,,,0.00,Wunderground v.1.15,2013-08-10 05:38:00,
2013-08-10 01:39:00,65.6,63.2,29.76,WNW,296,7.0,10.0,92,0.00,,,0.00,Wunderground v.1.15,2013-08-10 05:39:00,
2013-08-10 01:42:00,65.5,63.1,29.76,WSW,248,1.0,5.0,92,0.00,,,0.00,Wunderground v.1.15,2013-08-10 05:42:00,
2013-08-10 01:44:00,65.4,63.0,29.77,West,275,0.0,5.0,92,0.00,,,0.00,Wunderground v.1.15,2013-08-10 05:44:00,
2013-08-10 01:47:00,65.2,62.8,29.77,West,275,1.0,5.0,92,0.00,,,0.00,Wunderground v.1.15,2013-08-10 05:47:00,
2013-08-10 01:49:00,65.0,62.6,29.77,South,185,6.0,7.0,92,0.00,,,0.00,Wunderground v.1.15,2013-08-10 05:49:00,
2013-08-10 01:51:00,65.0,62.6,29.77,NW,317,0.0,3.0,92,0.00,,,0.00,Wunderground v.1.15,2013-08-10 05:51:00,
2013-08-10 01:55:00,64.9,62.5,29.77,SE,139,0.0,3.0,92,0.00,,,0.00,Wunderground v.1.15,2013-08-10 05:55:00,
2013-08-10 01:56:00,64.9,62.5,29.77,WSW,258,0.0,3.0,92,0.00,,,0.00,Wunderground v.1.15,2013-08-10 05:56:00,
2013-08-10 01:57:00,64.9,62.5,29.77,SW,219,6.0,6.0,92,0.00,,,0.00,Wunderground v.1.15,2013-08-10 05:57:00,
2013-08-10 01:58:00,64.8,62.4,29.77,South,175,2.0,6.0,92,0.00,,,0.00,Wunderground v.1.15,2013-08-10 05:58:00,
2013-08-10 02:01:00,64.7,62.3,29.77,South,186,0.0,6.0,92,0.00,,,0.00,Wunderground v.1.15,2013-08-10 06:01:00,
2013-08-10 02:02:00,64.6,62.5,29.77,SSW,200,1.0,6.0,93,0.00,,,0.00,Wunderground v.1.15,2013-08-10 06:02:00,
2013-08-10 02:03:00,64.6,62.5,29.76,WSW,252,0.0,6.0,93,0.00,,,0.00,Wunderground v.1.15,2013-08-10 06:03:00,
2013-08-10 02:06:00,64.5,62.4,29.77,SSW,209,0.0,6.0,93,0.00,,,0.00,Wunderground v.1.15,2013-08-10 06:06:00,
2013-08-10 02:07:00,64.4,62.3,29.77,NE,46,2.0,6.0,93,0.00,,,0.00,Wunderground v.1.15,2013-08-10 06:07:00,
2013-08-10 02:08:00,64.3,61.9,29.77,SSE,158,1.0,6.0,92,0.00,,,0.00,Wunderground v.1.15,2013-08-10 06:08:00,
2013-08-10 02:09:00,64.3,62.2,29.77,ESE,116,4.0,7.0,93,0.00,,,0.00,Wunderground v.1.15,2013-08-10 06:09:00,
2013-08-10 02:11:00,64.2,61.8,29.76,South,174,0.0,3.0,92,0.00,,,0.00,Wunderground v.1.15,2013-08-10 06:11:00,
2013-08-10 02:12:00,64.2,61.8,29.77,South,184,6.0,9.0,92,0.00,,,0.00,Wunderground v.1.15,2013-08-10 06:12:00,
2013-08-10 02:13:00,64.2,61.8,29.76,WSW,254,6.0,11.0,92,0.00,,,0.00,Wunderground v.1.15,2013-08-10 06:13:00,
2013-08-10 02:15:00,64.3,61.9,29.77,SSW,197,6.0,12.0,92,0.00,,,0.00,Wunderground v.1.15,2013-08-10 06:15:00,
2013-08-10 02:16:00,64.3,61.9,29.77,SW,232,6.0,12.0,92,0.00,,,0.00,Wunderground v.1.15,2013-08-10 06:16:00,
2013-08-10 02:17:00,64.3,61.9,29.77,SSW,207,6.0,12.0,92,0.00,,,0.00,Wunderground v.1.15,2013-08-10 06:17:00,
2013-08-10 02:19:00,64.3,61.6,29.77,SSE,163,4.0,12.0,91,0.00,,,0.00,Wunderground v.1.15,2013-08-10 06:19:00,
2013-08-10 02:20:00,64.3,61.6,29.76,NE,54,1.0,4.0,91,0.00,,,0.00,Wunderground v.1.15,2013-08-10 06:20:00,
2013-08-10 02:22:00,64.3,61.6,29.77,North,360,2.0,13.0,91,0.00,,,0.00,Wunderground v.1.15,2013-08-10 06:22:00,
2013-08-10 02:24:00,64.3,61.6,29.77,SSE,159,4.0,13.0,91,0.00,,,0.00,Wunderground v.1.15,2013-08-10 06:24:00,
2013-08-10 02:25:00,64.3,61.6,29.77,ESE,120,1.0,13.0,91,0.00,,,0.00,Wunderground v.1.15,2013-08-10 06:25:00,
2013-08-10 02:27:00,64.2,61.5,29.77,South,180,2.0,13.0,91,0.00,,,0.00,Wunderground v.1.15,2013-08-10 06:27:00,
2013-08-10 02:28:00,64.1,61.4,29.77,WSW,245,0.0,15.0,91,0.00,,,0.00,Wunderground v.1.15,2013-08-10 06:28:00,
2013-08-10 02:29:00,64.1,61.7,29.77,ESE,108,1.0,15.0,92,0.00,,,0.00,Wunderground v.1.15,2013-08-10 06:29:00,
2013-08-10 02:30:00,64.0,61.6,29.77,SW,229,3.0,5.0,92,0.00,,,0.00,Wunderground v.1.15,2013-08-10 06:30:00,
2013-08-10 02:32:00,64.0,61.6,29.77,WNW,292,11.0,11.0,92,0.00,,,0.00,Wunderground v.1.15,2013-08-10 06:32:00,
2013-08-10 02:33:00,63.9,61.5,29.77,WSW,252,5.0,11.0,92,0.00,,,0.00,Wunderground v.1.15,2013-08-10 06:33:00,
2013-08-10 02:35:00,63.8,61.4,29.77,SSW,202,1.0,11.0,92,0.00,,,0.00,Wunderground v.1.15,2013-08-10 06:35:00,
2013-08-10 02:36:00,63.8,61.4,29.76,West,279,3.0,11.0,92,0.00,,,0.00,Wunderground v.1.15,2013-08-10 06:36:00,
2013-08-10 02:37:00,63.8,61.4,29.77,WNW,300,4.0,11.0,92,0.00,,,0.00,Wunderground v.1.15,2013-08-10 06:37:00,
2013-08-10 02:38:00,63.7,61.3,29.76,ENE,71,4.0,11.0,92,0.00,,,0.00,Wunderground v.1.15,2013-08-10 06:38:00,
2013-08-10 02:39:00,63.7,61.3,29.76,South,180,0.0,11.0,92,0.00,,,0.00,Wunderground v.1.15,2013-08-10 06:39:00,
2013-08-10 02:40:00,63.6,61.2,29.76,WSW,253,5.0,9.0,92,0.00,,,0.00,Wunderground v.1.15,2013-08-10 06:40:00,
2013-08-10 02:41:00,63.6,61.2,29.76,SSE,163,4.0,9.0,92,0.00,,,0.00,Wunderground v.1.15,2013-08-10 06:41:00,
2013-08-10 02:42:00,63.6,61.2,29.76,SW,218,3.0,10.0,92,0.00,,,0.00,Wunderground v.1.15,2013-08-10 06:42:00,
2013-08-10 02:43:00,63.5,61.1,29.76,NNW,332,5.0,10.0,92,0.00,,,0.00,Wunderground v.1.15,2013-08-10 06:43:00,
2013-08-10 02:44:00,63.5,61.1,29.76,South,182,6.0,10.0,92,0.00,,,0.00,Wunderground v.1.15,2013-08-10 06:44:00,
2013-08-10 02:45:00,63.5,61.1,29.76,SSW,192,5.0,10.0,92,0.00,,,0.00,Wunderground v.1.15,2013-08-10 06:45:00,
2013-08-10 02:46:00,63.5,61.1,29.76,South,171,1.0,10.0,92,0.00,,,0.00,Wunderground v.1.15,2013-08-10 06:46:00,
2013-08-10 02:48:00,63.5,61.1,29.76,North,355,6.0,10.0,92,0.00,,,0.00,Wunderground v.1.15,2013-08-10 06:48:00,
2013-08-10 02:49:00,63.5,61.1,29.77,WNW,288,10.0,11.0,92,0.00,,,0.00,Wunderground v.1.15,2013-08-10 06:49:00,
2013-08-10 02:51:00,63.4,61.0,29.76,SE,146,2.0,5.0,92,0.00,,,0.00,Wunderground v.1.15,2013-08-10 06:51:00,
2013-08-10 02:52:00,63.4,61.0,29.76,WNW,293,7.0,7.0,92,0.00,,,0.00,Wunderground v.1.15,2013-08-10 06:52:00,
2013-08-10 02:54:00,63.4,61.0,29.76,WSW,242,9.0,11.0,92,0.00,,,0.00,Wunderground v.1.15,2013-08-10 06:54:00,
2013-08-10 02:56:00,63.3,60.9,29.76,WSW,258,3.0,16.0,92,0.00,,,0.00,Wunderground v.1.15,2013-08-10 06:56:00,
2013-08-10 02:57:00,63.3,60.9,29.76,West,279,9.0,16.0,92,0.00,,,0.00,Wunderground v.1.15,2013-08-10 06:57:00,
2013-08-10 02:59:00,63.2,60.8,29.76,West,261,9.0,16.0,92,0.00,,,0.00,Wunderground v.1.15,2013-08-10 06:59:00,
2013-08-10 03:00:00,63.2,60.8,29.76,SSE,149,4.0,16.0,92,0.00,,,0.00,Wunderground v.1.15,2013-08-10 07:00:00,
2013-08-10 03:01:00,63.2,60.8,29.76,WSW,250,0.0,7.0,92,0.00,,,0.00,Wunderground v.1.15,2013-08-10 07:01:00,
2013-08-10 03:02:00,63.2,60.8,29.77,North,355,6.0,7.0,92,0.00,,,0.00,Wunderground v.1.15,2013-08-10 07:02:00,
2013-08-10 03:04:00,63.1,60.7,29.76,WSW,246,6.0,14.0,92,0.00,,,0.00,Wunderground v.1.15,2013-08-10 07:04:00,
2013-08-10 03:05:00,63.1,60.7,29.77,WNW,297,13.0,14.0,92,0.00,,,0.00,Wunderground v.1.15,2013-08-10 07:05:00,
2013-08-10 03:06:00,63.0,60.6,29.77,SSW,209,0.0,14.0,92,0.00,,,0.00,Wunderground v.1.15,2013-08-10 07:06:00,
2013-08-10 03:07:00,63.0,60.6,29.77,SSE,157,1.0,14.0,92,0.00,,,0.00,Wunderground v.1.15,2013-08-10 07:07:00,
2013-08-10 03:10:00,62.9,60.5,29.77,North,11,0.0,14.0,92,0.00,,,0.00,Wunderground v.1.15,2013-08-10 07:10:00,
2013-08-10 03:12:00,62.8,60.4,29.77,SSW,198,1.0,15.0,92,0.00,,,0.00,Wunderground v.1.15,2013-08-10 07:12:00,
2013-08-10 03:15:00,62.7,60.3,29.77,West,269,1.0,15.0,92,0.00,,,0.00,Wunderground v.1.15,2013-08-10 07:15:00,
2013-08-10 03:17:00,62.6,60.2,29.77,SSW,198,4.0,15.0,92,0.00,,,0.00,Wunderground v.1.15,2013-08-10 07:17:00,
2013-08-10 03:20:00,62.6,60.2,29.77,West,274,2.0,5.0,92,0.00,,,0.00,Wunderground v.1.15,2013-08-10 07:20:00,
2013-08-10 03:21:00,62.7,60.3,29.77,West,281,5.0,6.0,92,0.00,,,0.00,Wunderground v.1.15,2013-08-10 07:21:00,
2013-08-10 03:22:00,62.6,59.9,29.77,ENE,65,0.0,9.0,91,0.00,,,0.00,Wunderground v.1.15,2013-08-10 07:22:00,
2013-08-10 03:23:00,62.6,60.2,29.77,NW,320,6.0,9.0,92,0.00,,,0.00,Wunderground v.1.15,2013-08-10 07:23:00,
2013-08-10 03:25:00,62.6,60.2,29.77,WNW,290,6.0,13.0,92,0.00,,,0.00,Wunderground v.1.15,2013-08-10 07:25:00,
2013-08-10 03:26:00,62.6,59.9,29.77,WNW,292,5.0,13.0,91,0.00,,,0.00,Wunderground v.1.15,2013-08-10 07:26:00,
2013-08-10 03:28:00,62.5,59.8,29.77,ESE,123,5.0,13.0,91,0.00,,,0.00,Wunderground v.1.15,2013-08-10 07:28:00,
2013-08-10 03:30:00,62.4,59.7,29.77,WNW,284,4.0,11.0,91,0.00,,,0.00,Wunderground v.1.15,2013-08-10 07:30:00,
2013-08-10 03:31:00,62.4,59.7,29.77,South,169,4.0,11.0,91,0.00,,,0.00,Wunderground v.1.15,2013-08-10 07:31:00,
2013-08-10 03:33:00,62.4,59.7,29.78,NNE,20,5.0,11.0,91,0.00,,,0.00,Wunderground v.1.15,2013-08-10 07:33:00,
2013-08-10 03:36:00,62.5,59.5,29.77,WNW,292,7.0,11.0,90,0.00,,,0.00,Wunderground v.1.15,2013-08-10 07:36:00,
2013-08-10 03:38:00,62.5,59.5,29.77,SW,224,10.0,11.0,90,0.00,,,0.00,Wunderground v.1.15,2013-08-10 07:38:00,
2013-08-10 03:39:00,62.4,59.4,29.77,SSE,165,5.0,11.0,90,0.00,,,0.00,Wunderground v.1.15,2013-08-10 07:39:00,
2013-08-10 03:41:00,62.4,59.4,29.78,West,271,2.0,12.0,90,0.00,,,0.00,Wunderground v.1.15,2013-08-10 07:41:00,
2013-08-10 03:42:00,62.4,59.4,29.77,WSW,246,4.0,12.0,90,0.00,,,0.00,Wunderground v.1.15,2013-08-10 07:42:00,
2013-08-10 03:43:00,62.4,59.4,29.77,SE,142,7.0,12.0,90,0.00,,,0.00,Wunderground v.1.15,2013-08-10 07:43:00,
2013-08-10 03:44:00,62.4,59.4,29.78,WSW,252,13.0,13.0,90,0.00,,,0.00,Wunderground v.1.15,2013-08-10 07:44:00,
2013-08-10 03:46:00,62.3,59.3,29.78,WNW,288,4.0,13.0,90,0.00,,,0.00,Wunderground v.1.15,2013-08-10 07:46:00,
2013-08-10 03:47:00,62.3,59.3,29.78,ESE,113,5.0,13.0,90,0.00,,,0.00,Wunderground v.1.15,2013-08-10 07:47:00,
2013-08-10 03:49:00,62.2,59.5,29.78,SE,142,2.0,13.0,91,0.00,,,0.00,Wunderground v.1.15,2013-08-10 07:49:00,
2013-08-10 03:52:00,62.1,59.1,29.78,WNW,295,1.0,11.0,90,0.00,,,0.00,Wunderground v.1.15,2013-08-10 07:52:00,
2013-08-10 03:54:00,62.1,59.4,29.78,WNW,294,2.0,11.0,91,0.00,,,0.00,Wunderground v.1.15,2013-08-10 07:54:00,
2013-08-10 03:57:00,62.0,59.3,29.78,SSW,206,4.0,11.0,91,0.00,,,0.00,Wunderground v.1.15,2013-08-10 07:57:00,
2013-08-10 03:59:00,61.9,59.2,29.78,NNW,342,0.0,11.0,91,0.00,,,0.00,Wunderground v.1.15,2013-08-10 07:59:00,
2013-08-10 04:02:00,61.8,59.1,29.78,West,265,7.0,8.0,91,0.00,,,0.00,Wunderground v.1.15,2013-08-10 08:02:00,
2013-08-10 04:04:00,61.8,59.1,29.79,South,183,2.0,8.0,91,0.00,,,0.00,Wunderground v.1.15,2013-08-10 08:04:00,
2013-08-10 04:05:00,61.8,59.1,29.79,South,183,2.0,8.0,91,0.00,,,0.00,Wunderground v.1.15,2013-08-10 08:05:00,
2013-08-10 04:07:00,61.8,59.1,29.79,South,173,9.0,10.0,91,0.00,,,0.00,Wunderground v.1.15,2013-08-10 08:07:00,
2013-08-10 04:09:00,61.7,59.0,29.79,NE,53,6.0,10.0,91,0.00,,,0.00,Wunderground v.1.15,2013-08-10 08:09:00,
2013-08-10 04:11:00,61.7,59.0,29.79,WSW,242,7.0,7.0,91,0.00,,,0.00,Wunderground v.1.15,2013-08-10 08:11:00,
2013-08-10 04:12:00,61.6,58.9,29.79,SSW,206,5.0,12.0,91,0.00,,,0.00,Wunderground v.1.15,2013-08-10 08:12:00,
2013-08-10 04:13:00,61.7,59.0,29.79,West,273,8.0,12.0,91,0.00,,,0.00,Wunderground v.1.15,2013-08-10 08:13:00,
2013-08-10 04:14:00,61.6,58.9,29.79,WSW,238,0.0,12.0,91,0.00,,,0.00,Wunderground v.1.15,2013-08-10 08:14:00,
2013-08-10 04:16:00,61.6,58.9,29.79,WNW,296,1.0,12.0,91,0.00,,,0.00,Wunderground v.1.15,2013-08-10 08:16:00,
2013-08-10 04:17:00,61.6,58.9,29.80,West,275,11.0,12.0,91,0.00,,,0.00,Wunderground v.1.15,2013-08-10 08:17:00,
2013-08-10 04:18:00,61.6,58.9,29.80,WNW,288,17.0,17.0,91,0.00,,,0.00,Wunderground v.1.15,2013-08-10 08:18:00,
2013-08-10 04:21:00,61.6,58.9,29.79,WSW,254,6.0,6.0,91,0.00,,,0.00,Wunderground v.1.15,2013-08-10 08:21:00,
2013-08-10 04:22:00,61.6,58.9,29.79,SE,126,5.0,11.0,91,0.00,,,0.00,Wunderground v.1.15,2013-08-10 08:22:00,
2013-08-10 04:23:00,61.5,58.8,29.79,SSE,165,5.0,11.0,91,0.00,,,0.00,Wunderground v.1.15,2013-08-10 08:23:00,
2013-08-10 04:26:00,61.4,58.7,29.79,SSW,195,2.0,11.0,91,0.00,,,0.00,Wunderground v.1.15,2013-08-10 08:26:00,
2013-08-10 04:28:00,61.3,58.7,29.80,South,178,0.0,11.0,91,0.00,,,0.00,Wunderground v.1.15,2013-08-10 08:28:00,
2013-08-10 04:29:00,61.3,58.7,29.80,SSE,163,0.0,11.0,91,0.00,,,0.00,Wunderground v.1.15,2013-08-10 08:29:00,
2013-08-10 04:31:00,61.2,58.9,29.80,NW,306,2.0,5.0,92,0.00,,,0.00,Wunderground v.1.15,2013-08-10 08:31:00,
2013-08-10 04:33:00,61.2,58.9,29.80,West,277,0.0,11.0,92,0.00,,,0.00,Wunderground v.1.15,2013-08-10 08:33:00,
2013-08-10 04:35:00,61.1,58.8,29.80,South,182,2.0,11.0,92,0.00,,,0.00,Wunderground v.1.15,2013-08-10 08:35:00,
2013-08-10 04:36:00,61.1,58.8,29.80,West,271,2.0,11.0,92,0.00,,,0.00,Wunderground v.1.15,2013-08-10 08:36:00,
2013-08-10 04:37:00,61.1,58.8,29.80,SSE,165,1.0,11.0,92,0.00,,,0.00,Wunderground v.1.15,2013-08-10 08:37:00,
2013-08-10 04:38:00,61.1,58.8,29.80,WNW,289,0.0,11.0,92,0.00,,,0.00,Wunderground v.1.15,2013-08-10 08:38:00,
2013-08-10 04:40:00,61.0,58.7,29.80,NW,317,4.0,4.0,92,0.00,,,0.00,Wunderground v.1.15,2013-08-10 08:40:00,
2013-08-10 04:41:00,61.0,58.7,29.80,West,276,5.0,10.0,92,0.00,,,0.00,Wunderground v.1.15,2013-08-10 08:41:00,
2013-08-10 04:42:00,60.9,58.6,29.80,SSW,199,2.0,10.0,92,0.00,,,0.00,Wunderground v.1.15,2013-08-10 08:42:00,
2013-08-10 04:43:00,60.9,58.6,29.80,West,280,7.0,10.0,92,0.00,,,0.00,Wunderground v.1.15,2013-08-10 08:43:00,
2013-08-10 04:44:00,60.9,58.6,29.80,WSW,245,4.0,10.0,92,0.00,,,0.00,Wunderground v.1.15,2013-08-10 08:44:00,
2013-08-10 04:46:00,60.8,58.5,29.80,West,267,5.0,10.0,92,0.00,,,0.00,Wunderground v.1.15,2013-08-10 08:46:00,
2013-08-10 04:47:00,60.8,58.5,29.80,NNW,327,4.0,10.0,92,0.00,,,0.00,Wunderground v.1.15,2013-08-10 08:47:00,
2013-08-10 04:48:00,60.8,58.5,29.80,WSW,243,0.0,10.0,92,0.00,,,0.00,Wunderground v.1.15,2013-08-10 08:48:00,
2013-08-10 04:49:00,60.8,58.5,29.80,SSE,153,7.0,10.0,92,0.00,,,0.00,Wunderground v.1.15,2013-08-10 08:49:00,
2013-08-10 04:52:00,60.7,58.4,29.80,WNW,284,7.0,7.0,92,0.00,,,0.00,Wunderground v.1.15,2013-08-10 08:52:00,
2013-08-10 04:53:00,60.8,58.5,29.80,SW,221,0.0,7.0,92,0.00,,,0.00,Wunderground v.1.15,2013-08-10 08:53:00,
2013-08-10 04:54:00,60.7,58.4,29.80,NNW,340,5.0,11.0,92,0.00,,,0.00,Wunderground v.1.15,2013-08-10 08:54:00,
2013-08-10 04:57:00,60.6,58.6,29.80,NNW,341,1.0,11.0,93,0.00,,,0.00,Wunderground v.1.15,2013-08-10 08:57:00,
2013-08-10 04:58:00,60.5,58.2,29.80,WNW,289,4.0,11.0,92,0.00,,,0.00,Wunderground v.1.15,2013-08-10 08:58:00,
2013-08-10 04:59:00,60.5,58.2,29.80,WSW,247,0.0,11.0,92,0.00,,,0.00,Wunderground v.1.15,2013-08-10 08:59:00,
2013-08-10 05:02:00,60.4,58.4,29.80,SW,223,3.0,11.0,93,0.00,,,0.00,Wunderground v.1.15,2013-08-10 09:02:00,
2013-08-10 05:03:00,60.4,58.4,29.80,SW,223,5.0,11.0,93,0.00,,,0.00,Wunderground v.1.15,2013-08-10 09:03:00,
2013-08-10 05:04:00,60.3,58.3,29.80,West,267,3.0,11.0,93,0.00,,,0.00,Wunderground v.1.15,2013-08-10 09:04:00,
2013-08-10 05:05:00,60.3,58.3,29.80,West,279,1.0,11.0,93,0.00,,,0.00,Wunderground v.1.15,2013-08-10 09:05:00,
2013-08-10 05:08:00,60.2,58.2,29.81,SW,228,1.0,11.0,93,0.00,,,0.00,Wunderground v.1.15,2013-08-10 09:08:00,
2013-08-10 05:09:00,60.2,58.2,29.81,West,270,0.0,11.0,93,0.00,,,0.00,Wunderground v.1.15,2013-08-10 09:09:00,
2013-08-10 05:11:00,60.1,58.1,29.81,SSW,205,0.0,6.0,93,0.00,,,0.00,Wunderground v.1.15,2013-08-10 09:11:00,
2013-08-10 05:13:00,60.0,58.0,29.80,East,83,1.0,10.0,93,0.00,,,0.00,Wunderground v.1.15,2013-08-10 09:13:00,
2013-08-10 05:14:00,60.0,58.0,29.80,SSW,198,0.0,10.0,93,0.00,,,0.00,Wunderground v.1.15,2013-08-10 09:14:00,
2013-08-10 05:16:00,59.9,57.9,29.81,SSW,207,2.0,10.0,93,0.00,,,0.00,Wunderground v.1.15,2013-08-10 09:16:00,
2013-08-10 05:18:00,59.8,57.8,29.80,West,263,4.0,10.0,93,0.00,,,0.00,Wunderground v.1.15,2013-08-10 09:18:00,
2013-08-10 05:19:00,59.8,57.8,29.81,West,271,4.0,10.0,93,0.00,,,0.00,Wunderground v.1.15,2013-08-10 09:19:00,
2013-08-10 05:20:00,59.8,57.8,29.81,SSW,213,2.0,10.0,93,0.00,,,0.00,Wunderground v.1.15,2013-08-10 09:20:00,
2013-08-10 05:21:00,59.8,57.8,29.81,SW,227,3.0,6.0,93,0.00,,,0.00,Wunderground v.1.15,2013-08-10 09:21:00,
2013-08-10 05:23:00,59.8,57.8,29.81,West,265,7.0,7.0,93,0.00,,,0.00,Wunderground v.1.15,2013-08-10 09:23:00,
2013-08-10 05:24:00,59.7,57.7,29.81,South,170,4.0,8.0,93,0.00,,,0.00,Wunderground v.1.15,2013-08-10 09:24:00,
2013-08-10 05:26:00,59.7,57.7,29.81,ESE,118,0.0,8.0,93,0.00,,,0.00,Wunderground v.1.15,2013-08-10 09:26:00,
2013-08-10 05:28:00,59.6,57.6,29.81,West,263,0.0,8.0,93,0.00,,,0.00,Wunderground v.1.15,2013-08-10 09:28:00,
2013-08-10 05:29:00,59.6,57.6,29.81,South,181,0.0,8.0,93,0.00,,,0.00,Wunderground v.1.15,2013-08-10 09:29:00,
2013-08-10 05:31:00,59.5,57.5,29.81,West,263,0.0,6.0,93,0.00,,,0.00,Wunderground v.1.15,2013-08-10 09:31:00,
2013-08-10 05:34:00,59.4,57.7,29.82,SW,227,2.0,6.0,94,0.00,,,0.00,Wunderground v.1.15,2013-08-10 09:34:00,
2013-08-10 05:36:00,59.3,57.6,29.82,South,184,0.0,6.0,94,0.00,,,0.00,Wunderground v.1.15,2013-08-10 09:36:00,
2013-08-10 05:39:00,59.2,57.5,29.82,SW,229,4.0,6.0,94,0.00,,,0.00,Wunderground v.1.15,2013-08-10 09:39:00,
2013-08-10 05:40:00,59.2,57.5,29.82,SSW,198,0.0,6.0,94,0.00,,,0.00,Wunderground v.1.15,2013-08-10 09:40:00,
2013-08-10 05:42:00,59.1,57.4,29.82,WNW,287,5.0,6.0,94,0.00,,,0.00,Wunderground v.1.15,2013-08-10 09:42:00,
2013-08-10 05:44:00,59.0,57.3,29.82,SE,138,5.0,6.0,94,0.00,,,0.00,Wunderground v.1.15,2013-08-10 09:44:00,
2013-08-10 05:45:00,59.0,57.3,29.82,West,265,3.0,6.0,94,0.00,,,0.00,Wunderground v.1.15,2013-08-10 09:45:00,
2013-08-10 05:47:00,59.0,57.3,29.82,SW,217,0.0,8.0,94,0.00,,,0.00,Wunderground v.1.15,2013-08-10 09:47:00,
2013-08-10 05:48:00,59.0,57.3,29.82,West,275,5.0,10.0,94,0.00,,,0.00,Wunderground v.1.15,2013-08-10 09:48:00,
2013-08-10 05:50:00,59.0,57.3,29.82,SSE,165,0.0,10.0,94,0.00,,,0.00,Wunderground v.1.15,2013-08-10 09:50:00,
2013-08-10 05:52:00,59.0,57.0,29.82,SSW,209,0.0,5.0,93,0.00,,,0.00,Wunderground v.1.15,2013-08-10 09:52:00,
2013-08-10 05:54:00,58.9,56.9,29.82,SW,226,0.0,5.0,93,0.00,,,0.00,Wunderground v.1.15,2013-08-10 09:54:00,
2013-08-10 05:55:00,58.9,56.9,29.82,WSW,238,0.0,5.0,93,0.00,,,0.00,Wunderground v.1.15,2013-08-10 09:55:00,
2013-08-10 05:57:00,58.9,56.9,29.82,South,176,1.0,5.0,93,0.00,,,0.00,Wunderground v.1.15,2013-08-10 09:57:00,
2013-08-10 05:59:00,58.9,56.9,29.82,West,270,2.0,8.0,93,0.00,,,0.00,Wunderground v.1.15,2013-08-10 09:59:00,
2013-08-10 06:00:00,58.8,56.8,29.82,WSW,255,0.0,8.0,93,0.00,,,0.00,Wunderground v.1.15,2013-08-10 10:00:00,
2013-08-10 06:01:00,58.8,56.8,29.82,West,273,5.0,5.0,93,0.00,,,0.00,Wunderground v.1.15,2013-08-10 10:01:00,
2013-08-10 06:02:00,58.8,56.8,29.82,SW,216,0.0,5.0,93,0.00,,,0.00,Wunderground v.1.15,2013-08-10 10:02:00,
2013-08-10 06:04:00,58.9,56.9,29.82,SSW,197,3.0,7.0,93,0.00,,,0.00,Wunderground v.1.15,2013-08-10 10:04:00,
2013-08-10 06:05:00,58.9,56.9,29.82,WNW,284,3.0,7.0,93,0.00,,,0.00,Wunderground v.1.15,2013-08-10 10:05:00,
2013-08-10 06:06:00,58.9,56.9,29.82,SSW,202,0.0,7.0,93,0.00,,,0.00,Wunderground v.1.15,2013-08-10 10:06:00,
2013-08-10 06:08:00,58.9,56.9,29.82,SSE,155,6.0,8.0,93,0.00,,,0.00,Wunderground v.1.15,2013-08-10 10:08:00,
2013-08-10 06:09:00,58.9,56.6,29.82,WSW,254,3.0,8.0,92,0.00,,,0.00,Wunderground v.1.15,2013-08-10 10:09:00,
2013-08-10 06:10:00,58.9,56.9,29.82,South,179,5.0,5.0,93,0.00,,,0.00,Wunderground v.1.15,2013-08-10 10:10:00,
2013-08-10 06:11:00,59.0,57.0,29.82,WSW,252,5.0,5.0,93,0.00,,,0.00,Wunderground v.1.15,2013-08-10 10:11:00,
2013-08-10 06:12:00,59.0,56.7,29.82,WSW,239,2.0,11.0,92,0.00,,,0.00,Wunderground v.1.15,2013-08-10 10:12:00,
2013-08-10 06:14:00,59.1,56.8,29.82,WNW,283,2.0,11.0,92,0.00,,,0.00,Wunderground v.1.15,2013-08-10 10:14:00,
2013-08-10 06:15:00,59.1,56.8,29.82,SW,228,2.0,11.0,92,0.00,,,0.00,Wunderground v.1.15,2013-08-10 10:15:00,
2013-08-10 06:16:00,59.1,56.8,29.82,SSW,209,0.0,11.0,92,0.00,,,0.00,Wunderground v.1.15,2013-08-10 10:16:00,
2013-08-10 06:17:00,59.1,56.8,29.82,SW,232,3.0,11.0,92,0.00,,,0.00,Wunderground v.1.15,2013-08-10 10:17:00,
2013-08-10 06:19:00,59.2,56.6,29.82,SW,223,3.0,11.0,91,0.00,,,0.00,Wunderground v.1.15,2013-08-10 10:19:00,
2013-08-10 06:21:00,59.2,56.9,29.82,NNW,334,2.0,4.0,92,0.00,,,0.00,Wunderground v.1.15,2013-08-10 10:21:00,
2013-08-10 06:22:00,59.2,56.6,29.83,SW,233,8.0,8.0,91,0.00,,,0.00,Wunderground v.1.15,2013-08-10 10:22:00,
2013-08-10 06:24:00,59.3,56.7,29.82,SW,232,0.0,8.0,91,0.00,,,0.00,Wunderground v.1.15,2013-08-10 10:24:00,
2013-08-10 06:25:00,59.3,56.7,29.82,NW,310,1.0,8.0,91,0.00,,,0.00,Wunderground v.1.15,2013-08-10 10:25:00,
2013-08-10 06:26:00,59.3,56.7,29.83,West,277,0.0,8.0,91,0.00,,,0.00,Wunderground v.1.15,2013-08-10 10:26:00,
2013-08-10 06:27:00,59.3,56.7,29.83,West,278,0.0,8.0,91,0.00,,,0.00,Wunderground v.1.15,2013-08-10 10:27:00,
2013-08-10 06:29:00,59.3,56.7,29.82,NW,320,2.0,8.0,91,0.00,,,0.00,Wunderground v.1.15,2013-08-10 10:29:00,
2013-08-10 06:30:00,59.3,56.4,29.83,SSE,168,1.0,6.0,90,0.00,,,0.00,Wunderground v.1.15,2013-08-10 10:30:00,
2013-08-10 06:32:00,59.3,56.4,29.83,WSW,240,2.0,6.0,90,0.00,,,0.00,Wunderground v.1.15,2013-08-10 10:32:00,
2013-08-10 06:34:00,59.3,56.7,29.83,West,279,2.0,6.0,91,0.00,,,0.00,Wunderground v.1.15,2013-08-10 10:34:00,
2013-08-10 06:35:00,59.2,56.6,29.83,WSW,240,5.0,10.0,91,0.00,,,0.00,Wunderground v.1.15,2013-08-10 10:35:00,
2013-08-10 06:37:00,59.2,56.6,29.83,West,277,6.0,10.0,91,0.00,,,0.00,Wunderground v.1.15,2013-08-10 10:37:00,
2013-08-10 06:38:00,59.2,56.6,29.83,WSW,245,5.0,10.0,91,0.00,,,0.00,Wunderground v.1.15,2013-08-10 10:38:00,
2013-08-10 06:39:00,59.2,56.6,29.83,SW,225,8.0,11.0,91,0.00,,,0.00,Wunderground v.1.15,2013-08-10 10:39:00,
2013-08-10 06:41:00,59.3,56.7,29.83,West,271,1.0,4.0,91,0.00,,,0.00,Wunderground v.1.15,2013-08-10 10:41:00,
2013-08-10 06:42:00,59.3,56.7,29.83,SW,225,0.0,4.0,91,0.00,,,0.00,Wunderground v.1.15,2013-08-10 10:42:00,
2013-08-10 06:43:00,59.2,56.6,29.83,SSE,158,2.0,6.0,91,0.00,,,0.00,Wunderground v.1.15,2013-08-10 10:43:00,
2013-08-10 06:44:00,59.2,56.6,29.83,South,176,1.0,6.0,91,0.00,,,0.00,Wunderground v.1.15,2013-08-10 10:44:00,
2013-08-10 06:46:00,59.1,56.2,29.83,SW,221,3.0,8.0,90,0.00,,,0.00,Wunderground v.1.15,2013-08-10 10:46:00,
2013-08-10 06:47:00,59.1,56.2,29.83,South,176,2.0,8.0,90,0.00,,,0.00,Wunderground v.1.15,2013-08-10 10:47:00,
2013-08-10 06:48:00,59.1,56.2,29.83,SW,235,1.0,8.0,90,0.00,,,0.00,Wunderground v.1.15,2013-08-10 10:48:00,
2013-08-10 06:49:00,59.1,56.5,29.83,South,180,0.0,8.0,91,0.00,,,0.00,Wunderground v.1.15,2013-08-10 10:49:00,
2013-08-10 06:52:00,59.0,56.7,29.83,SSW,194,0.0,4.0,92,0.00,,,0.00,Wunderground v.1.15,2013-08-10 10:52:00,
2013-08-10 06:54:00,58.9,56.3,29.83,SW,218,0.0,4.0,91,0.00,,,0.00,Wunderground v.1.15,2013-08-10 10:54:00,
2013-08-10 06:55:00,58.7,56.4,29.83,SSW,207,1.0,4.0,92,0.00,,,0.00,Wunderground v.1.15,2013-08-10 10:55:00,
2013-08-10 06:57:00,58.7,56.4,29.83,SSE,152,0.0,4.0,92,0.00,,,0.00,Wunderground v.1.15,2013-08-10 10:57:00,
2013-08-10 06:59:00,58.6,56.3,29.83,WNW,282,0.0,4.0,92,0.00,,,0.00,Wunderground v.1.15,2013-08-10 10:59:00,
2013-08-10 07:00:00,58.6,56.3,29.83,WNW,282,0.0,4.0,92,0.00,,,0.00,Wunderground v.1.15,2013-08-10 11:00:00,
2013-08-10 07:01:00,58.5,56.5,29.83,SW,225,0.0,3.0,93,0.00,,,0.00,Wunderground v.1.15,2013-08-10 11:01:00,
2013-08-10 07:02:00,58.5,56.5,29.83,West,261,3.0,4.0,93,0.00,,,0.00,Wunderground v.1.15,2013-08-10 11:02:00,
2013-08-10 07:03:00,58.5,56.5,29.83,SW,230,1.0,4.0,93,0.00,,,0.00,Wunderground v.1.15,2013-08-10 11:03:00,
2013-08-10 07:04:00,58.4,56.4,29.83,WSW,252,2.0,5.0,93,0.00,,,0.00,Wunderground v.1.15,2013-08-10 11:04:00,
2013-08-10 07:05:00,58.4,56.4,29.83,SSW,200,0.0,5.0,93,0.00,,,0.00,Wunderground v.1.15,2013-08-10 11:05:00,
2013-08-10 07:06:00,58.4,56.4,29.83,WSW,244,0.0,5.0,93,0.00,,,0.00,Wunderground v.1.15,2013-08-10 11:06:00,
2013-08-10 07:08:00,58.4,56.4,29.83,WSW,237,0.0,5.0,93,0.00,,,0.00,Wunderground v.1.15,2013-08-10 11:08:00,
2013-08-10 07:09:00,58.4,56.4,29.83,WSW,252,3.0,7.0,93,0.00,,,0.00,Wunderground v.1.15,2013-08-10 11:09:00,
2013-08-10 07:10:00,58.4,56.4,29.83,SW,235,1.0,7.0,93,0.00,,,0.00,Wunderground v.1.15,2013-08-10 11:10:00,
2013-08-10 07:11:00,58.5,56.5,29.83,NW,325,1.0,3.0,93,0.00,,,0.00,Wunderground v.1.15,2013-08-10 11:11:00,
2013-08-10 07:13:00,58.5,56.5,29.83,SW,227,0.0,3.0,93,0.00,,,0.00,Wunderground v.1.15,2013-08-10 11:13:00,
2013-08-10 07:14:00,58.5,56.5,29.83,NW,309,0.0,3.0,93,0.00,,,0.00,Wunderground v.1.15,2013-08-10 11:14:00,
2013-08-10 07:15:00,58.5,56.5,29.83,South,180,0.0,4.0,93,0.00,,,0.00,Wunderground v.1.15,2013-08-10 11:15:00,
2013-08-10 07:17:00,58.6,56.6,29.84,SW,227,0.0,4.0,93,0.00,,,0.00,Wunderground v.1.15,2013-08-10 11:17:00,
2013-08-10 07:18:00,58.6,56.6,29.84,South,169,0.0,4.0,93,0.00,,,0.00,Wunderground v.1.15,2013-08-10 11:18:00,
2013-08-10 07:20:00,58.6,56.6,29.84,SW,234,0.0,4.0,93,0.00,,,0.00,Wunderground v.1.15,2013-08-10 11:20:00,
2013-08-10 07:22:00,58.7,56.7,29.84,West,269,3.0,7.0,93,0.00,,,0.00,Wunderground v.1.15,2013-08-10 11:22:00,
2013-08-10 07:24:00,58.7,56.7,29.84,WSW,251,1.0,7.0,93,0.00,,,0.00,Wunderground v.1.15,2013-08-10 11:24:00,
2013-08-10 07:25:00,58.8,56.5,29.84,NNE,20,1.0,7.0,92,0.00,,,0.00,Wunderground v.1.15,2013-08-10 11:25:00,
2013-08-10 07:26:00,58.9,56.6,29.83,SSW,202,0.0,7.0,92,0.00,,,0.00,Wunderground v.1.15,2013-08-10 11:26:00,
2013-08-10 07:28:00,59.0,56.7,29.83,SW,221,0.0,7.0,92,0.00,,,0.00,Wunderground v.1.15,2013-08-10 11:28:00,
2013-08-10 07:29:00,59.1,56.8,29.84,WSW,245,2.0,7.0,92,0.00,,,0.00,Wunderground v.1.15,2013-08-10 11:29:00,
2013-08-10 07:30:00,59.2,56.6,29.84,WSW,244,0.0,2.0,91,0.00,,,0.00,Wunderground v.1.15,2013-08-10 11:30:00,
2013-08-10 07:31:00,59.3,56.7,29.84,WSW,246,1.0,6.0,91,0.00,,,0.00,Wunderground v.1.15,2013-08-10 11:31:00,
2013-08-10 07:33:00,59.3,56.7,29.84,South,184,0.0,7.0,91,0.00,,,0.00,Wunderground v.1.15,2013-08-10 11:33:00,
2013-08-10 07:34:00,59.4,56.8,29.84,West,274,0.0,7.0,91,0.00,,,0.00,Wunderground v.1.15,2013-08-10 11:34:00,
2013-08-10 07:35:00,59.4,56.8,29.84,NW,306,0.0,7.0,91,0.00,,,0.00,Wunderground v.1.15,2013-08-10 11:35:00,
2013-08-10 07:36:00,59.5,56.9,29.84,South,180,1.0,7.0,91,0.00,,,0.00,Wunderground v.1.15,2013-08-10 11:36:00,
2013-08-10 07:37:00,59.5,56.9,29.84,WSW,239,0.0,7.0,91,0.00,,,0.00,Wunderground v.1.15,2013-08-10 11:37:00,
2013-08-10 07:39:00,59.6,57.3,29.84,WSW,239,1.0,7.0,92,0.00,,,0.00,Wunderground v.1.15,2013-08-10 11:39:00,
2013-08-10 07:40:00,59.6,57.3,29.84,South,175,1.0,1.0,92,0.00,,,0.00,Wunderground v.1.15,2013-08-10 11:40:00,
2013-08-10 07:41:00,59.7,57.1,29.84,South,188,0.0,1.0,91,0.00,,,0.00,Wunderground v.1.15,2013-08-10 11:41:00,
2013-08-10 07:42:00,59.8,57.2,29.84,SSW,213,0.0,3.0,91,0.00,,,0.00,Wunderground v.1.15,2013-08-10 11:42:00,
2013-08-10 07:44:00,60.0,57.4,29.84,ESE,119,1.0,6.0,91,0.00,,,0.00,Wunderground v.1.15,2013-08-10 11:44:00,
2013-08-10 07:45:00,60.0,57.4,29.84,ESE,122,0.0,6.0,91,0.00,,,0.00,Wunderground v.1.15,2013-08-10 11:45:00,
2013-08-10 07:46:00,60.1,57.2,29.84,ESE,122,2.0,6.0,90,0.00,,,0.00,Wunderground v.1.15,2013-08-10 11:46:00,
2013-08-10 07:47:00,60.2,57.3,29.84,SSW,202,0.0,6.0,90,0.00,,,0.00,Wunderground v.1.15,2013-08-10 11:47:00,
2013-08-10 07:49:00,60.4,57.1,29.84,WSW,240,0.0,6.0,89,0.00,,,0.00,Wunderground v.1.15,2013-08-10 11:49:00,
2013-08-10 07:50:00,60.5,57.6,29.84,South,171,1.0,6.0,90,0.00,,,0.00,Wunderground v.1.15,2013-08-10 11:50:00,
2013-08-10 07:51:00,60.5,57.6,29.84,West,263,0.0,3.0,90,0.00,,,0.00,Wunderground v.1.15,2013-08-10 11:51:00,
2013-08-10 07:52:00,60.6,57.7,29.84,West,263,0.0,3.0,90,0.00,,,0.00,Wunderground v.1.15,2013-08-10 11:52:00,
2013-08-10 07:54:00,60.7,57.4,29.83,SSW,196,3.0,7.0,89,0.00,,,0.00,Wunderground v.1.15,2013-08-10 11:54:00,
2013-08-10 07:55:00,60.7,57.4,29.84,ESE,118,6.0,7.0,89,0.00,,,0.00,Wunderground v.1.15,2013-08-10 11:55:00,
2013-08-10 07:56:00,60.8,57.2,29.83,SSW,205,2.0,9.0,88,0.00,,,0.00,Wunderground v.1.15,2013-08-10 11:56:00,
2013-08-10 07:57:00,60.8,57.2,29.84,SSW,206,0.0,9.0,88,0.00,,,0.00,Wunderground v.1.15,2013-08-10 11:57:00,
2013-08-10 07:59:00,61.1,57.2,29.84,South,186,5.0,11.0,87,0.00,,,0.00,Wunderground v.1.15,2013-08-10 11:59:00,
2013-08-10 08:00:00,61.2,56.7,29.84,NW,314,3.0,3.0,85,0.00,,,0.00,Wunderground v.1.15,2013-08-10 12:00:00,
2013-08-10 08:01:00,61.4,57.2,29.83,West,259,3.0,8.0,86,0.00,,,0.00,Wunderground v.1.15,2013-08-10 12:01:00,
2013-08-10 08:02:00,61.4,57.2,29.83,WSW,240,1.0,8.0,86,0.00,,,0.00,Wunderground v.1.15,2013-08-10 12:02:00,
2013-08-10 08:04:00,61.7,57.5,29.83,South,186,0.0,11.0,86,0.00,,,0.00,Wunderground v.1.15,2013-08-10 12:04:00,
2013-08-10 08:06:00,61.7,57.5,29.83,SSW,200,0.0,11.0,86,0.00,,,0.00,Wunderground v.1.15,2013-08-10 12:06:00,
2013-08-10 08:07:00,61.8,57.2,29.83,SW,223,1.0,11.0,85,0.00,,,0.00,Wunderground v.1.15,2013-08-10 12:07:00,
2013-08-10 08:09:00,61.9,57.7,29.83,West,266,0.0,11.0,86,0.00,,,0.00,Wunderground v.1.15,2013-08-10 12:09:00,
2013-08-10 08:10:00,62.0,57.8,29.83,SSW,207,3.0,4.0,86,0.00,,,0.00,Wunderground v.1.15,2013-08-10 12:10:00,
2013-08-10 08:11:00,62.1,57.9,29.83,SSW,207,0.0,4.0,86,0.00,,,0.00,Wunderground v.1.15,2013-08-10 12:11:00,
2013-08-10 08:12:00,62.2,58.6,29.83,NW,326,5.0,5.0,88,0.00,,,0.00,Wunderground v.1.15,2013-08-10 12:12:00,
2013-08-10 08:13:00,62.2,58.3,29.84,WSW,248,3.0,5.0,87,0.00,,,0.00,Wunderground v.1.15,2013-08-10 12:13:00,
2013-08-10 08:14:00,62.2,58.6,29.83,SSW,207,0.0,5.0,88,0.00,,,0.00,Wunderground v.1.15,2013-08-10 12:14:00,
2013-08-10 08:15:00,62.3,58.7,29.83,WSW,242,1.0,5.0,88,0.00,,,0.00,Wunderground v.1.15,2013-08-10 12:15:00,
2013-08-10 08:16:00,62.3,58.7,29.83,SW,221,3.0,5.0,88,0.00,,,0.00,Wunderground v.1.15,2013-08-10 12:16:00,
2013-08-10 08:18:00,62.3,58.1,29.83,SSE,151,5.0,6.0,86,0.00,,,0.00,Wunderground v.1.15,2013-08-10 12:18:00,
2013-08-10 08:19:00,62.3,57.4,29.83,West,280,6.0,11.0,84,0.00,,,0.00,Wunderground v.1.15,2013-08-10 12:19:00,
2013-08-10 08:20:00,62.5,57.3,29.84,SSE,164,7.0,8.0,83,0.00,,,0.00,Wunderground v.1.15,2013-08-10 12:20:00,
2013-08-10 08:21:00,62.6,57.4,29.84,SSE,166,4.0,8.0,83,0.00,,,0.00,Wunderground v.1.15,2013-08-10 12:21:00,
2013-08-10 08:23:00,62.7,57.5,29.84,SSW,211,2.0,8.0,83,0.00,,,0.00,Wunderground v.1.15,2013-08-10 12:23:00,
2013-08-10 08:24:00,62.8,57.6,29.84,SSW,193,2.0,8.0,83,0.00,,,0.00,Wunderground v.1.15,2013-08-10 12:24:00,
2013-08-10 08:26:00,62.9,58.0,29.84,West,276,0.0,8.0,84,0.00,,,0.00,Wunderground v.1.15,2013-08-10 12:26:00,
2013-08-10 08:28:00,63.1,58.2,29.84,SSW,195,6.0,8.0,84,0.00,,,0.00,Wunderground v.1.15,2013-08-10 12:28:00,
2013-08-10 08:29:00,63.1,58.2,29.84,WNW,296,1.0,8.0,84,0.00,,,0.00,Wunderground v.1.15,2013-08-10 12:29:00,
2013-08-10 08:31:00,63.2,57.6,29.84,SE,136,1.0,6.0,82,0.00,,,0.00,Wunderground v.1.15,2013-08-10 12:31:00,
2013-08-10 08:33:00,63.3,57.7,29.84,South,171,7.0,11.0,82,0.00,,,0.00,Wunderground v.1.15,2013-08-10 12:33:00,
2013-08-10 08:34:00,63.3,57.4,29.84,SE,146,2.0,11.0,81,0.00,,,0.00,Wunderground v.1.15,2013-08-10 12:34:00,
2013-08-10 08:36:00,63.4,57.1,29.84,NNW,339,5.0,14.0,80,0.00,,,0.00,Wunderground v.1.15,2013-08-10 12:36:00,
2013-08-10 08:37:00,63.5,56.9,29.85,North,350,2.0,14.0,79,0.00,,,0.00,Wunderground v.1.15,2013-08-10 12:37:00,
2013-08-10 08:38:00,63.6,57.3,29.84,SSW,200,5.0,14.0,80,0.00,,,0.00,Wunderground v.1.15,2013-08-10 12:38:00,
2013-08-10 08:39:00,63.6,57.3,29.84,SSE,153,11.0,15.0,80,0.00,,,0.00,Wunderground v.1.15,2013-08-10 12:39:00,
2013-08-10 08:40:00,63.7,56.4,29.84,WSW,244,4.0,16.0,77,0.00,,,0.00,Wunderground v.1.15,2013-08-10 12:40:00,
2013-08-10 08:41:00,63.8,57.2,29.83,WSW,257,0.0,5.0,79,0.00,,,0.00,Wunderground v.1.15,2013-08-10 12:41:00,
2013-08-10 08:42:00,63.9,57.6,29.84,WSW,240,0.0,7.0,80,0.00,,,0.00,Wunderground v.1.15,2013-08-10 12:42:00,
2013-08-10 08:43:00,64.0,58.1,29.84,South,188,5.0,7.0,81,0.00,,,0.00,Wunderground v.1.15,2013-08-10 12:43:00,
2013-08-10 08:44:00,64.0,58.1,29.83,WSW,246,5.0,7.0,81,0.00,,,0.00,Wunderground v.1.15,2013-08-10 12:44:00,
2013-08-10 08:45:00,64.0,57.7,29.84,WSW,246,4.0,10.0,80,0.00,,,0.00,Wunderground v.1.15,2013-08-10 12:45:00,
2013-08-10 08:46:00,64.0,57.4,29.84,WSW,239,5.0,10.0,79,0.00,,,0.00,Wunderground v.1.15,2013-08-10 12:46:00,
2013-08-10 08:47:00,64.0,57.4,29.84,WSW,250,4.0,10.0,79,0.00,,,0.00,Wunderground v.1.15,2013-08-10 12:47:00,
2013-08-10 08:48:00,64.1,57.1,29.84,SSW,202,6.0,12.0,78,0.00,,,0.00,Wunderground v.1.15,2013-08-10 12:48:00,
2013-08-10 08:49:00,64.1,57.1,29.84,WNW,299,0.0,12.0,78,0.00,,,0.00,Wunderground v.1.15,2013-08-10 12:49:00,
2013-08-10 08:50:00,64.2,57.5,29.84,West,267,4.0,4.0,79,0.00,,,0.00,Wunderground v.1.15,2013-08-10 12:50:00,
2013-08-10 08:52:00,64.2,58.2,29.84,WSW,240,4.0,11.0,81,0.00,,,0.00,Wunderground v.1.15,2013-08-10 12:52:00,
2013-08-10 08:53:00,64.3,57.6,29.84,South,172,0.0,11.0,79,0.00,,,0.00,Wunderground v.1.15,2013-08-10 12:53:00,
2013-08-10 08:54:00,64.3,58.0,29.84,ESE,111,2.0,11.0,80,0.00,,,0.00,Wunderground v.1.15,2013-08-10 12:54:00,
2013-08-10 08:55:00,64.4,58.1,29.84,WNW,284,0.0,11.0,80,0.00,,,0.00,Wunderground v.1.15,2013-08-10 12:55:00,
2013-08-10 08:57:00,64.4,57.0,29.84,South,180,5.0,15.0,77,0.00,,,0.00,Wunderground v.1.15,2013-08-10 12:57:00,
2013-08-10 08:58:00,64.4,57.4,29.84,WSW,243,2.0,15.0,78,0.00,,,0.00,Wunderground v.1.15,2013-08-10 12:58:00,
2013-08-10 09:00:00,64.5,58.2,29.84,West,274,2.0,4.0,80,0.00,,,0.00,Wunderground v.1.15,2013-08-10 13:00:00,
2013-08-10 09:03:00,64.6,58.3,29.84,NW,311,6.0,8.0,80,0.00,,,0.00,Wunderground v.1.15,2013-08-10 13:03:00,
2013-08-10 09:05:00,64.7,58.4,29.84,WSW,243,9.0,13.0,80,0.00,,,0.00,Wunderground v.1.15,2013-08-10 13:05:00,
2013-08-10 09:06:00,64.6,57.6,29.84,West,272,5.0,13.0,78,0.00,,,0.00,Wunderground v.1.15,2013-08-10 13:06:00,
2013-08-10 09:07:00,64.7,57.7,29.84,WSW,248,5.0,13.0,78,0.00,,,0.00,Wunderground v.1.15,2013-08-10 13:07:00,
2013-08-10 09:08:00,64.7,57.7,29.84,SW,228,5.0,13.0,78,0.00,,,0.00,Wunderground v.1.15,2013-08-10 13:08:00,
2013-08-10 09:11:00,64.8,58.5,29.84,SSW,213,8.0,9.0,80,0.00,,,0.00,Wunderground v.1.15,2013-08-10 13:11:00,
2013-08-10 09:12:00,64.8,58.5,29.84,WNW,288,5.0,9.0,80,0.00,,,0.00,Wunderground v.1.15,2013-08-10 13:12:00,
2013-08-10 09:13:00,64.8,58.5,29.84,WSW,248,3.0,9.0,80,0.00,,,0.00,Wunderground v.1.15,2013-08-10 13:13:00,
2013-08-10 09:14:00,64.8,58.5,29.84,SW,225,2.0,9.0,80,0.00,,,0.00,Wunderground v.1.15,2013-08-10 13:14:00,
2013-08-10 09:16:00,64.8,58.1,29.84,West,273,5.0,11.0,79,0.00,,,0.00,Wunderground v.1.15,2013-08-10 13:16:00,
2013-08-10 09:17:00,64.8,58.1,29.84,South,184,1.0,11.0,79,0.00,,,0.00,Wunderground v.1.15,2013-08-10 13:17:00,
2013-08-10 09:18:00,64.8,58.8,29.84,NNE,13,3.0,11.0,81,0.00,,,0.00,Wunderground v.1.15,2013-08-10 13:18:00,
2013-08-10 09:19:00,64.9,59.3,29.84,WSW,246,2.0,11.0,82,0.00,,,0.00,Wunderground v.1.15,2013-08-10 13:19:00,
2013-08-10 09:21:00,64.9,58.2,29.84,SW,217,7.0,14.0,79,0.00,,,0.00,Wunderground v.1.15,2013-08-10 13:21:00,
2013-08-10 09:23:00,64.9,58.2,29.84,SSW,200,7.0,14.0,79,0.00,,,0.00,Wunderground v.1.15,2013-08-10 13:23:00,
2013-08-10 09:24:00,64.9,58.2,29.84,SE,129,2.0,14.0,79,0.00,,,0.00,Wunderground v.1.15,2013-08-10 13:24:00,
2013-08-10 09:25:00,65.0,58.0,29.84,West,278,7.0,14.0,78,0.00,,,0.00,Wunderground v.1.15,2013-08-10 13:25:00,
2013-08-10 09:26:00,65.0,58.7,29.84,SW,220,4.0,14.0,80,0.00,,,0.00,Wunderground v.1.15,2013-08-10 13:26:00,
2013-08-10 09:29:00,65.2,59.2,29.84,SSE,167,4.0,14.0,81,0.00,,,0.00,Wunderground v.1.15,2013-08-10 13:29:00,
2013-08-10 09:31:00,65.4,59.4,29.84,WSW,238,2.0,7.0,81,0.00,,,0.00,Wunderground v.1.15,2013-08-10 13:31:00,
2013-08-10 09:34:00,65.6,59.3,29.84,NW,309,4.0,8.0,80,0.00,,,0.00,Wunderground v.1.15,2013-08-10 13:34:00,
2013-08-10 09:36:00,65.8,59.1,29.84,WNW,292,7.0,10.0,79,0.00,,,0.00,Wunderground v.1.15,2013-08-10 13:36:00,
2013-08-10 09:37:00,65.8,59.1,29.84,South,189,2.0,10.0,79,0.00,,,0.00,Wunderground v.1.15,2013-08-10 13:37:00,
2013-08-10 09:39:00,65.9,60.2,29.84,North,355,2.0,10.0,82,0.00,,,0.00,Wunderground v.1.15,2013-08-10 13:39:00,
2013-08-10 09:40:00,66.0,59.3,29.84,West,265,4.0,6.0,79,0.00,,,0.00,Wunderground v.1.15,2013-08-10 13:40:00,
2013-08-10 09:41:00,66.1,59.4,29.84,South,173,8.0,10.0,79,0.00,,,0.00,Wunderground v.1.15,2013-08-10 13:41:00,
2013-08-10 09:42:00,66.1,59.4,29.84,SSE,147,5.0,10.0,79,0.00,,,0.00,Wunderground v.1.15,2013-08-10 13:42:00,
2013-08-10 09:44:00,66.0,59.3,29.84,North,360,1.0,10.0,79,0.00,,,0.00,Wunderground v.1.15,2013-08-10 13:44:00,
2013-08-10 09:46:00,66.1,59.0,29.84,NW,306,3.0,10.0,78,0.00,,,0.00,Wunderground v.1.15,2013-08-10 13:46:00,
2013-08-10 09:47:00,66.1,59.4,29.84,SW,219,3.0,10.0,79,0.00,,,0.00,Wunderground v.1.15,2013-08-10 13:47:00,
2013-08-10 09:50:00,66.3,59.2,29.84,SSW,194,0.0,4.0,78,0.00,,,0.00,Wunderground v.1.15,2013-08-10 13:50:00,
2013-08-10 09:51:00,66.4,60.4,29.84,WSW,242,5.0,5.0,81,0.00,,,0.00,Wunderground v.1.15,2013-08-10 13:51:00,
2013-08-10 09:52:00,66.4,60.0,29.84,South,186,1.0,7.0,80,0.00,,,0.00,Wunderground v.1.15,2013-08-10 13:52:00,
2013-08-10 09:53:00,66.4,59.3,29.84,SW,224,2.0,7.0,78,0.00,,,0.00,Wunderground v.1.15,2013-08-10 13:53:00,
2013-08-10 09:55:00,66.5,59.1,29.85,WSW,239,1.0,9.0,77,0.00,,,0.00,Wunderground v.1.15,2013-08-10 13:55:00,
2013-08-10 09:56:00,66.4,59.0,29.84,SSW,212,1.0,9.0,77,0.00,,,0.00,Wunderground v.1.15,2013-08-10 13:56:00,
2013-08-10 09:58:00,66.4,60.4,29.84,SW,233,5.0,9.0,81,0.00,,,0.00,Wunderground v.1.15,2013-08-10 13:58:00,
2013-08-10 09:59:00,66.5,60.5,29.84,West,275,8.0,9.0,81,0.00,,,0.00,Wunderground v.1.15,2013-08-10 13:59:00,
2013-08-10 10:00:00,66.5,58.7,29.84,WSW,250,4.0,5.0,76,0.00,,,0.00,Wunderground v.1.15,2013-08-10 14:00:00,
2013-08-10 10:01:00,66.5,59.1,29.84,SW,223,1.0,12.0,77,0.00,,,0.00,Wunderground v.1.15,2013-08-10 14:01:00,
2013-08-10 10:02:00,66.5,59.4,29.84,SSE,150,6.0,12.0,78,0.00,,,0.00,Wunderground v.1.15,2013-08-10 14:02:00,
2013-08-10 10:03:00,66.5,59.1,29.85,SE,145,5.0,12.0,77,0.00,,,0.00,Wunderground v.1.15,2013-08-10 14:03:00,
2013-08-10 10:04:00,66.5,59.4,29.84,WSW,254,2.0,12.0,78,0.00,,,0.00,Wunderground v.1.15,2013-08-10 14:04:00,
2013-08-10 10:06:00,66.5,59.1,29.84,West,279,11.0,12.0,77,0.00,,,0.00,Wunderground v.1.15,2013-08-10 14:06:00,
2013-08-10 10:07:00,66.5,58.3,29.85,NW,326,4.0,15.0,75,0.00,,,0.00,Wunderground v.1.15,2013-08-10 14:07:00,
2013-08-10 10:09:00,66.5,58.3,29.85,SW,234,1.0,15.0,75,0.00,,,0.00,Wunderground v.1.15,2013-08-10 14:09:00,
2013-08-10 10:11:00,66.5,58.3,29.85,SW,220,5.0,10.0,75,0.00,,,0.00,Wunderground v.1.15,2013-08-10 14:11:00,
2013-08-10 10:12:00,66.5,58.3,29.85,NNW,327,11.0,11.0,75,0.00,,,0.00,Wunderground v.1.15,2013-08-10 14:12:00,
2013-08-10 10:13:00,66.4,58.2,29.85,West,265,0.0,11.0,75,0.00,,,0.00,Wunderground v.1.15,2013-08-10 14:13:00,
2013-08-10 10:14:00,66.5,59.1,29.85,South,169,1.0,11.0,77,0.00,,,0.00,Wunderground v.1.15,2013-08-10 14:14:00,
2013-08-10 10:15:00,66.5,59.1,29.85,SW,219,1.0,11.0,77,0.00,,,0.00,Wunderground v.1.15,2013-08-10 14:15:00,
2013-08-10 10:16:00,66.5,59.1,29.85,South,172,1.0,11.0,77,0.00,,,0.00,Wunderground v.1.15,2013-08-10 14:16:00,
2013-08-10 10:17:00,66.6,59.2,29.85,SSW,207,4.0,11.0,77,0.00,,,0.00,Wunderground v.1.15,2013-08-10 14:17:00,
2013-08-10 10:18:00,66.6,59.2,29.85,NNE,14,0.0,11.0,77,0.00,,,0.00,Wunderground v.1.15,2013-08-10 14:18:00,
2013-08-10 10:19:00,66.6,59.5,29.85,SW,215,1.0,11.0,78,0.00,,,0.00,Wunderground v.1.15,2013-08-10 14:19:00,
2013-08-10 10:20:00,66.6,59.9,29.85,SSW,207,1.0,11.0,79,0.00,,,0.00,Wunderground v.1.15,2013-08-10 14:20:00,
2013-08-10 10:21:00,66.6,59.2,29.85,South,171,1.0,14.0,77,0.00,,,0.00,Wunderground v.1.15,2013-08-10 14:21:00,
2013-08-10 10:22:00,66.6,59.2,29.85,WSW,258,3.0,14.0,77,0.00,,,0.00,Wunderground v.1.15,2013-08-10 14:22:00,
2013-08-10 10:23:00,66.6,59.5,29.85,SSE,148,4.0,14.0,78,0.00,,,0.00,Wunderground v.1.15,2013-08-10 14:23:00,
2013-08-10 10:24:00,66.6,59.2,29.85,SSE,160,5.0,14.0,77,0.00,,,0.00,Wunderground v.1.15,2013-08-10 14:24:00,
2013-08-10 10:25:00,66.7,59.6,29.85,WNW,282,6.0,14.0,78,0.00,,,0.00,Wunderground v.1.15,2013-08-10 14:25:00,
2013-08-10 10:26:00,66.6,59.2,29.85,WNW,292,7.0,14.0,77,0.00,,,0.00,Wunderground v.1.15,2013-08-10 14:26:00,
2013-08-10 10:27:00,66.5,59.1,29.85,SW,232,0.0,14.0,77,0.00,,,0.00,Wunderground v.1.15,2013-08-10 14:27:00,
2013-08-10 10:29:00,66.4,59.3,29.85,West,273,3.0,14.0,78,0.00,,,0.00,Wunderground v.1.15,2013-08-10 14:29:00,
2013-08-10 10:30:00,66.5,59.1,29.85,NW,304,9.0,9.0,77,0.00,,,0.00,Wunderground v.1.15,2013-08-10 14:30:00,
2013-08-10 10:31:00,66.5,59.4,29.85,WNW,291,6.0,9.0,78,0.00,,,0.00,Wunderground v.1.15,2013-08-10 14:31:00,
2013-08-10 10:32:00,66.6,59.5,29.85,South,180,2.0,9.0,78,0.00,,,0.00,Wunderground v.1.15,2013-08-10 14:32:00,
2013-08-10 10:34:00,66.6,59.2,29.85,NW,319,4.0,9.0,77,0.00,,,0.00,Wunderground v.1.15,2013-08-10 14:34:00,
2013-08-10 10:35:00,66.6,59.2,29.85,SSW,210,6.0,12.0,77,0.00,,,0.00,Wunderground v.1.15,2013-08-10 14:35:00,
2013-08-10 10:36:00,66.6,58.8,29.86,WNW,290,9.0,16.0,76,0.00,,,0.00,Wunderground v.1.15,2013-08-10 14:36:00,
2013-08-10 10:38:00,66.6,58.1,29.85,NNE,32,4.0,16.0,74,0.00,,,0.00,Wunderground v.1.15,2013-08-10 14:38:00,
2013-08-10 10:39:00,66.5,58.0,29.85,SSW,211,8.0,16.0,74,0.00,,,0.00,Wunderground v.1.15,2013-08-10 14:39:00,
2013-08-10 10:40:00,66.4,56.7,29.85,SE,127,4.0,16.0,71,0.00,,,0.00,Wunderground v.1.15,2013-08-10 14:40:00,
2013-08-10 10:41:00,66.4,57.9,29.85,WSW,244,5.0,7.0,74,0.00,,,0.00,Wunderground v.1.15,2013-08-10 14:41:00,
2013-08-10 10:43:00,66.6,58.1,29.85,WNW,291,5.0,8.0,74,0.00,,,0.00,Wunderground v.1.15,2013-08-10 14:43:00,
2013-08-10 10:45:00,66.8,57.9,29.85,WSW,254,3.0,10.0,73,0.00,,,0.00,Wunderground v.1.15,2013-08-10 14:45:00,
2013-08-10 10:47:00,66.9,58.0,29.85,WSW,248,1.0,10.0,73,0.00,,,0.00,Wunderground v.1.15,2013-08-10 14:47:00,
2013-08-10 10:48:00,67.0,58.1,29.85,SW,227,7.0,10.0,73,0.00,,,0.00,Wunderground v.1.15,2013-08-10 14:48:00,
2013-08-10 10:50:00,67.2,58.6,29.85,SSE,164,5.0,11.0,74,0.00,,,0.00,Wunderground v.1.15,2013-08-10 14:50:00,
2013-08-10 10:51:00,67.2,58.2,29.85,NNW,335,3.0,11.0,73,0.00,,,0.00,Wunderground v.1.15,2013-08-10 14:51:00,
2013-08-10 10:52:00,67.2,58.2,29.85,WNW,300,6.0,13.0,73,0.00,,,0.00,Wunderground v.1.15,2013-08-10 14:52:00,
2013-08-10 10:53:00,66.9,57.6,29.85,WNW,300,5.0,13.0,72,0.00,,,0.00,Wunderground v.1.15,2013-08-10 14:53:00,
2013-08-10 10:55:00,66.7,57.0,29.85,South,190,4.0,13.0,71,0.00,,,0.00,Wunderground v.1.15,2013-08-10 14:55:00,
2013-08-10 10:56:00,66.7,57.0,29.85,SSE,158,6.0,13.0,71,0.00,,,0.00,Wunderground v.1.15,2013-08-10 14:56:00,
2013-08-10 10:57:00,66.8,58.2,29.85,NNW,336,2.0,13.0,74,0.00,,,0.00,Wunderground v.1.15,2013-08-10 14:57:00,
2013-08-10 10:58:00,66.9,57.6,29.85,SE,130,4.0,13.0,72,0.00,,,0.00,Wunderground v.1.15,2013-08-10 14:58:00,
2013-08-10 11:00:00,66.9,58.0,29.85,WNW,291,3.0,5.0,73,0.00,,,0.00,Wunderground v.1.15,2013-08-10 15:00:00,
2013-08-10 11:01:00,66.9,58.0,29.85,WNW,289,3.0,5.0,73,0.00,,,0.00,Wunderground v.1.15,2013-08-10 15:01:00,
2013-08-10 11:02:00,66.9,57.6,29.85,West,281,3.0,5.0,72,0.00,,,0.00,Wunderground v.1.15,2013-08-10 15:02:00,
2013-08-10 11:04:00,66.9,58.3,29.85,West,276,8.0,11.0,74,0.00,,,0.00,Wunderground v.1.15,2013-08-10 15:04:00,
2013-08-10 11:05:00,66.9,57.2,29.85,ENE,70,6.0,11.0,71,0.00,,,0.00,Wunderground v.1.15,2013-08-10 15:05:00,
2013-08-10 11:06:00,66.9,56.8,29.85,NE,51,1.0,11.0,70,0.00,,,0.00,Wunderground v.1.15,2013-08-10 15:06:00,
2013-08-10 11:07:00,67.0,57.3,29.85,SW,214,8.0,11.0,71,0.00,,,0.00,Wunderground v.1.15,2013-08-10 15:07:00,
2013-08-10 11:08:00,66.9,57.2,29.86,ESE,107,2.0,13.0,71,0.00,,,0.00,Wunderground v.1.15,2013-08-10 15:08:00,
2013-08-10 11:09:00,66.8,57.1,29.86,West,265,9.0,15.0,71,0.00,,,0.00,Wunderground v.1.15,2013-08-10 15:09:00,
2013-08-10 11:11:00,66.5,57.2,29.86,WSW,258,4.0,8.0,72,0.00,,,0.00,Wunderground v.1.15,2013-08-10 15:11:00,
2013-08-10 11:13:00,66.3,57.0,29.86,NW,320,4.0,10.0,72,0.00,,,0.00,Wunderground v.1.15,2013-08-10 15:13:00,
2013-08-10 11:15:00,66.0,56.3,29.85,NNW,346,1.0,17.0,71,0.00,,,0.00,Wunderground v.1.15,2013-08-10 15:15:00,
2013-08-10 11:16:00,65.9,57.7,29.85,SSW,192,3.0,17.0,75,0.00,,,0.00,Wunderground v.1.15,2013-08-10 15:16:00,
2013-08-10 11:18:00,65.9,57.4,29.85,West,269,2.0,17.0,74,0.00,,,0.00,Wunderground v.1.15,2013-08-10 15:18:00,
2013-08-10 11:19:00,65.9,57.4,29.86,SSW,203,2.0,17.0,74,0.00,,,0.00,Wunderground v.1.15,2013-08-10 15:19:00,
2013-08-10 11:20:00,66.1,58.3,29.86,SW,236,1.0,17.0,76,0.00,,,0.00,Wunderground v.1.15,2013-08-10 15:20:00,
2013-08-10 11:21:00,66.4,57.9,29.86,NNW,329,5.0,11.0,74,0.00,,,0.00,Wunderground v.1.15,2013-08-10 15:21:00,
2013-08-10 11:23:00,66.7,58.5,29.85,SW,230,5.0,11.0,75,0.00,,,0.00,Wunderground v.1.15,2013-08-10 15:23:00,
2013-08-10 11:24:00,66.9,58.7,29.85,WSW,252,6.0,11.0,75,0.00,,,0.00,Wunderground v.1.15,2013-08-10 15:24:00,
2013-08-10 11:25:00,67.2,59.0,29.86,SSE,150,1.0,11.0,75,0.00,,,0.00,Wunderground v.1.15,2013-08-10 15:25:00,
2013-08-10 11:26:00,67.5,59.7,29.85,SW,232,1.0,11.0,76,0.00,,,0.00,Wunderground v.1.15,2013-08-10 15:26:00,
2013-08-10 11:27:00,67.5,59.7,29.86,North,360,1.0,11.0,76,0.00,,,0.00,Wunderground v.1.15,2013-08-10 15:27:00,
2013-08-10 11:28:00,67.8,58.1,29.86,NW,314,9.0,11.0,71,0.00,,,0.00,Wunderground v.1.15,2013-08-10 15:28:00,
2013-08-10 11:29:00,67.9,58.9,29.86,West,261,7.0,11.0,73,0.00,,,0.00,Wunderground v.1.15,2013-08-10 15:29:00,
2013-08-10 11:31:00,68.1,57.5,29.86,WSW,243,2.0,6.0,69,0.00,,,0.00,Wunderground v.1.15,2013-08-10 15:31:00,
2013-08-10 11:32:00,68.1,58.3,29.86,North,351,1.0,6.0,71,0.00,,,0.00,Wunderground v.1.15,2013-08-10 15:32:00,
2013-08-10 11:33:00,68.0,58.2,29.86,NW,305,3.0,17.0,71,0.00,,,0.00,Wunderground v.1.15,2013-08-10 15:33:00,
2013-08-10 11:35:00,67.9,57.8,29.86,WSW,249,6.0,18.0,70,0.00,,,0.00,Wunderground v.1.15,2013-08-10 15:35:00,
2013-08-10 11:36:00,67.9,59.7,29.86,SSW,195,6.0,18.0,75,0.00,,,0.00,Wunderground v.1.15,2013-08-10 15:36:00,
2013-08-10 11:37:00,67.9,58.1,29.86,East,97,5.0,18.0,71,0.00,,,0.00,Wunderground v.1.15,2013-08-10 15:37:00,
2013-08-10 11:38:00,68.1,58.3,29.86,NE,56,3.0,18.0,71,0.00,,,0.00,Wunderground v.1.15,2013-08-10 15:38:00,
2013-08-10 11:40:00,68.1,56.7,29.86,West,272,6.0,6.0,67,0.00,,,0.00,Wunderground v.1.15,2013-08-10 15:40:00,
2013-08-10 11:42:00,68.1,57.9,29.86,West,265,6.0,7.0,70,0.00,,,0.00,Wunderground v.1.15,2013-08-10 15:42:00,
2013-08-10 11:43:00,68.1,57.9,29.86,WNW,283,6.0,7.0,70,0.00,,,0.00,Wunderground v.1.15,2013-08-10 15:43:00,
2013-08-10 11:44:00,68.1,57.5,29.86,WNW,300,4.0,8.0,69,0.00,,,0.00,Wunderground v.1.15,2013-08-10 15:44:00,
2013-08-10 11:45:00,68.0,57.0,29.86,NW,304,6.0,8.0,68,0.00,,,0.00,Wunderground v.1.15,2013-08-10 15:45:00,
2013-08-10 11:47:00,67.7,57.6,29.86,SE,146,4.0,8.0,70,0.00,,,0.00,Wunderground v.1.15,2013-08-10 15:47:00,
2013-08-10 11:48:00,67.5,57.0,29.86,SW,229,8.0,9.0,69,0.00,,,0.00,Wunderground v.1.15,2013-08-10 15:48:00,
2013-08-10 11:49:00,67.4,56.9,29.86,SSW,194,2.0,10.0,69,0.00,,,0.00,Wunderground v.1.15,2013-08-10 15:49:00,
2013-08-10 11:50:00,67.4,57.7,29.86,NE,42,3.0,5.0,71,0.00,,,0.00,Wunderground v.1.15,2013-08-10 15:50:00,
2013-08-10 11:52:00,67.6,55.8,29.86,West,271,1.0,18.0,66,0.00,,,0.00,Wunderground v.1.15,2013-08-10 15:52:00,
2013-08-10 11:53:00,67.7,55.9,29.86,SW,223,6.0,18.0,66,0.00,,,0.00,Wunderground v.1.15,2013-08-10 15:53:00,
2013-08-10 11:54:00,67.8,56.9,29.86,SSE,153,7.0,18.0,68,0.00,,,0.00,Wunderground v.1.15,2013-08-10 15:54:00,
2013-08-10 11:56:00,68.0,56.2,29.87,West,263,2.0,18.0,66,0.00,,,0.00,Wunderground v.1.15,2013-08-10 15:56:00,
2013-08-10 11:57:00,68.1,55.0,29.87,North,360,6.0,18.0,63,0.00,,,0.00,Wunderground v.1.15,2013-08-10 15:57:00,
2013-08-10 11:59:00,68.3,55.6,29.87,SSW,212,0.0,18.0,64,0.00,,,0.00,Wunderground v.1.15,2013-08-10 15:59:00,
2013-08-10 12:00:00,68.5,56.3,29.86,South,184,5.0,8.0,65,0.00,,,0.00,Wunderground v.1.15,2013-08-10 16:00:00,
2013-08-10 12:01:00,68.5,56.3,29.87,SSW,207,10.0,10.0,65,0.00,,,0.00,Wunderground v.1.15,2013-08-10 16:01:00,
2013-08-10 12:02:00,68.6,55.5,29.87,SSE,155,8.0,11.0,63,0.00,,,0.00,Wunderground v.1.15,2013-08-10 16:02:00,
2013-08-10 12:03:00,68.5,55.4,29.86,ESE,123,4.0,11.0,63,0.00,,,0.00,Wunderground v.1.15,2013-08-10 16:03:00,
2013-08-10 12:04:00,68.6,55.9,29.86,South,184,7.0,11.0,64,0.00,,,0.00,Wunderground v.1.15,2013-08-10 16:04:00,
2013-08-10 12:05:00,68.6,56.4,29.86,West,275,12.0,12.0,65,0.00,,,0.00,Wunderground v.1.15,2013-08-10 16:05:00,
2013-08-10 12:07:00,68.6,53.2,29.86,South,190,11.0,12.0,58,0.00,,,0.00,Wunderground v.1.15,2013-08-10 16:07:00,
2013-08-10 12:08:00,68.6,53.2,29.87,South,188,6.0,12.0,58,0.00,,,0.00,Wunderground v.1.15,2013-08-10 16:08:00,
2013-08-10 12:09:00,68.6,52.3,29.87,WNW,284,7.0,13.0,56,0.00,,,0.00,Wunderground v.1.15,2013-08-10 16:09:00,
2013-08-10 12:10:00,68.6,51.8,29.86,SW,228,7.0,7.0,55,0.00,,,0.00,Wunderground v.1.15,2013-08-10 16:10:00,
2013-08-10 12:13:00,68.5,53.1,29.86,SSW,211,5.0,16.0,58,0.00,,,0.00,Wunderground v.1.15,2013-08-10 16:13:00,
2013-08-10 12:14:00,68.5,55.4,29.87,SSW,197,0.0,16.0,63,0.00,,,0.00,Wunderground v.1.15,2013-08-10 16:14:00,
2013-08-10 12:16:00,68.7,53.3,29.86,WNW,294,5.0,16.0,58,0.00,,,0.00,Wunderground v.1.15,2013-08-10 16:16:00,
2013-08-10 12:18:00,68.9,52.6,29.87,WSW,246,4.0,16.0,56,0.00,,,0.00,Wunderground v.1.15,2013-08-10 16:18:00,
2013-08-10 12:19:00,68.9,52.6,29.87,NNE,19,5.0,16.0,56,0.00,,,0.00,Wunderground v.1.15,2013-08-10 16:19:00,
2013-08-10 12:21:00,68.8,52.5,29.87,West,265,6.0,11.0,56,0.00,,,0.00,Wunderground v.1.15,2013-08-10 16:21:00,
2013-08-10 12:23:00,68.8,53.9,29.87,West,269,8.0,13.0,59,0.00,,,0.00,Wunderground v.1.15,2013-08-10 16:23:00,
2013-08-10 12:24:00,68.8,54.8,29.86,SSE,166,5.0,13.0,61,0.00,,,0.00,Wunderground v.1.15,2013-08-10 16:24:00,
2013-08-10 12:26:00,68.9,54.0,29.86,West,271,2.0,13.0,59,0.00,,,0.00,Wunderground v.1.15,2013-08-10 16:26:00,
2013-08-10 12:29:00,69.0,55.0,29.86,WSW,255,2.0,13.0,61,0.00,,,0.00,Wunderground v.1.15,2013-08-10 16:29:00,
2013-08-10 12:31:00,69.3,55.3,29.86,South,190,0.0,10.0,61,0.00,,,0.00,Wunderground v.1.15,2013-08-10 16:31:00,
2013-08-10 12:34:00,69.5,55.0,29.86,West,268,6.0,10.0,60,0.00,,,0.00,Wunderground v.1.15,2013-08-10 16:34:00,
2013-08-10 12:35:00,69.6,55.1,29.86,SW,230,7.0,10.0,60,0.00,,,0.00,Wunderground v.1.15,2013-08-10 16:35:00,
2013-08-10 12:36:00,69.5,54.5,29.87,SSE,156,4.0,12.0,59,0.00,,,0.00,Wunderground v.1.15,2013-08-10 16:36:00,
2013-08-10 12:39:00,69.5,53.1,29.87,South,173,7.0,13.0,56,0.00,,,0.00,Wunderground v.1.15,2013-08-10 16:39:00,
2013-08-10 12:40:00,69.5,54.5,29.86,SSW,206,6.0,13.0,59,0.00,,,0.00,Wunderground v.1.15,2013-08-10 16:40:00,
2013-08-10 12:41:00,69.6,55.6,29.87,WNW,284,12.0,12.0,61,0.00,,,0.00,Wunderground v.1.15,2013-08-10 16:41:00,
2013-08-10 12:42:00,69.5,53.1,29.87,East,81,5.0,15.0,56,0.00,,,0.00,Wunderground v.1.15,2013-08-10 16:42:00,
2013-08-10 12:44:00,69.3,51.4,29.86,WSW,242,7.0,15.0,53,0.00,,,0.00,Wunderground v.1.15,2013-08-10 16:44:00,
2013-08-10 12:45:00,69.3,52.9,29.87,South,183,4.0,15.0,56,0.00,,,0.00,Wunderground v.1.15,2013-08-10 16:45:00,
2013-08-10 12:46:00,69.3,51.9,29.87,SW,219,11.0,15.0,54,0.00,,,0.00,Wunderground v.1.15,2013-08-10 16:46:00,
2013-08-10 12:47:00,69.3,51.9,29.87,SSW,210,1.0,15.0,54,0.00,,,0.00,Wunderground v.1.15,2013-08-10 16:47:00,
2013-08-10 12:49:00,69.2,52.3,29.86,West,262,7.0,15.0,55,0.00,,,0.00,Wunderground v.1.15,2013-08-10 16:49:00,
2013-08-10 12:50:00,69.2,51.3,29.86,SW,229,11.0,12.0,53,0.00,,,0.00,Wunderground v.1.15,2013-08-10 16:50:00,
2013-08-10 12:51:00,69.0,50.1,29.87,SW,223,7.0,12.0,51,0.00,,,0.00,Wunderground v.1.15,2013-08-10 16:51:00,
2013-08-10 12:52:00,69.0,50.1,29.86,WNW,302,0.0,12.0,51,0.00,,,0.00,Wunderground v.1.15,2013-08-10 16:52:00,
2013-08-10 12:55:00,69.2,51.3,29.87,SW,221,7.0,16.0,53,0.00,,,0.00,Wunderground v.1.15,2013-08-10 16:55:00,
2013-08-10 12:56:00,69.2,51.3,29.87,NW,319,14.0,16.0,53,0.00,,,0.00,Wunderground v.1.15,2013-08-10 16:56:00,
2013-08-10 12:57:00,69.2,51.3,29.87,WNW,294,4.0,16.0,53,0.00,,,0.00,Wunderground v.1.15,2013-08-10 16:57:00,
2013-08-10 12:58:00,69.2,50.8,29.87,West,279,5.0,16.0,52,0.00,,,0.00,Wunderground v.1.15,2013-08-10 16:58:00,
2013-08-10 13:01:00,69.2,52.3,29.87,NNW,348,10.0,10.0,55,0.00,,,0.00,Wunderground v.1.15,2013-08-10 17:01:00,
2013-08-10 13:02:00,69.2,52.3,29.87,WNW,287,6.0,13.0,55,0.00,,,0.00,Wunderground v.1.15,2013-08-10 17:02:00,
2013-08-10 13:03:00,69.2,51.3,29.87,SW,229,8.0,13.0,53,0.00,,,0.00,Wunderground v.1.15,2013-08-10 17:03:00,
2013-08-10 13:06:00,69.2,51.3,29.87,SSW,194,5.0,16.0,53,0.00,,,0.00,Wunderground v.1.15,2013-08-10 17:06:00,
2013-08-10 13:07:00,69.2,51.3,29.88,West,267,11.0,16.0,53,0.00,,,0.00,Wunderground v.1.15,2013-08-10 17:07:00,
2013-08-10 13:08:00,69.1,50.7,29.87,NW,317,4.0,16.0,52,0.00,,,0.00,Wunderground v.1.15,2013-08-10 17:08:00,
2013-08-10 13:09:00,69.1,52.2,29.88,SSW,198,8.0,16.0,55,0.00,,,0.00,Wunderground v.1.15,2013-08-10 17:09:00,
2013-08-10 13:11:00,69.2,52.3,29.88,SSE,149,7.0,11.0,55,0.00,,,0.00,Wunderground v.1.15,2013-08-10 17:11:00,
2013-08-10 13:12:00,69.2,51.3,29.88,WSW,240,11.0,14.0,53,0.00,,,0.00,Wunderground v.1.15,2013-08-10 17:12:00,
2013-08-10 13:13:00,69.0,51.7,29.88,SW,234,12.0,14.0,54,0.00,,,0.00,Wunderground v.1.15,2013-08-10 17:13:00,
2013-08-10 13:14:00,69.0,51.7,29.88,South,180,8.0,14.0,54,0.00,,,0.00,Wunderground v.1.15,2013-08-10 17:14:00,
2013-08-10 13:17:00,69.0,50.6,29.88,SSW,210,9.0,14.0,52,0.00,,,0.00,Wunderground v.1.15,2013-08-10 17:17:00,
2013-08-10 13:18:00,69.1,50.7,29.88,WNW,293,6.0,14.0,52,0.00,,,0.00,Wunderground v.1.15,2013-08-10 17:18:00,
2013-08-10 13:19:00,69.1,50.7,29.88,NNE,25,3.0,14.0,52,0.00,,,0.00,Wunderground v.1.15,2013-08-10 17:19:00,
2013-08-10 13:22:00,69.2,51.3,29.88,West,259,5.0,12.0,53,0.00,,,0.00,Wunderground v.1.15,2013-08-10 17:22:00,
2013-08-10 13:23:00,69.3,51.4,29.88,NNW,343,4.0,12.0,53,0.00,,,0.00,Wunderground v.1.15,2013-08-10 17:23:00,
2013-08-10 13:24:00,69.3,50.9,29.88,NNW,329,1.0,12.0,52,0.00,,,0.00,Wunderground v.1.15,2013-08-10 17:24:00,
2013-08-10 13:27:00,69.4,48.3,29.88,NNW,327,4.0,12.0,47,0.00,,,0.00,Wunderground v.1.15,2013-08-10 17:27:00,
2013-08-10 13:28:00,69.4,48.9,29.88,ENE,69,1.0,12.0,48,0.00,,,0.00,Wunderground v.1.15,2013-08-10 17:28:00,
2013-08-10 13:29:00,69.4,52.0,29.88,SW,232,9.0,12.0,54,0.00,,,0.00,Wunderground v.1.15,2013-08-10 17:29:00,
2013-08-10 13:30:00,69.4,48.9,29.88,SSW,205,7.0,12.0,48,0.00,,,0.00,Wunderground v.1.15,2013-08-10 17:30:00,
2013-08-10 13:32:00,69.4,51.5,29.88,WNW,285,2.0,13.0,53,0.00,,,0.00,Wunderground v.1.15,2013-08-10 17:32:00,
2013-08-10 13:33:00,69.4,52.0,29.88,SSW,203,8.0,13.0,54,0.00,,,0.00,Wunderground v.1.15,2013-08-10 17:33:00,
2013-08-10 13:34:00,69.3,50.4,29.88,West,265,3.0,13.0,51,0.00,,,0.00,Wunderground v.1.15,2013-08-10 17:34:00,
2013-08-10 13:35:00,69.4,52.0,29.88,SW,231,6.0,14.0,54,0.00,,,0.00,Wunderground v.1.15,2013-08-10 17:35:00,
2013-08-10 13:37:00,69.5,53.1,29.88,SSE,150,11.0,14.0,56,0.00,,,0.00,Wunderground v.1.15,2013-08-10 17:37:00,
2013-08-10 13:38:00,69.6,53.7,29.88,West,268,8.0,14.0,57,0.00,,,0.00,Wunderground v.1.15,2013-08-10 17:38:00,
2013-08-10 13:39:00,69.7,51.8,29.88,WSW,249,3.0,14.0,53,0.00,,,0.00,Wunderground v.1.15,2013-08-10 17:39:00,
2013-08-10 13:40:00,69.7,50.8,29.88,South,184,6.0,6.0,51,0.00,,,0.00,Wunderground v.1.15,2013-08-10 17:40:00,
2013-08-10 13:43:00,70.0,50.0,29.89,South,190,3.0,10.0,49,0.00,,,0.00,Wunderground v.1.15,2013-08-10 17:43:00,
2013-08-10 13:44:00,70.1,48.9,29.88,NNW,344,2.0,10.0,47,0.00,,,0.00,Wunderground v.1.15,2013-08-10 17:44:00,
2013-08-10 13:46:00,70.1,50.0,29.88,North,355,2.0,10.0,49,0.00,,,0.00,Wunderground v.1.15,2013-08-10 17:46:00,
2013-08-10 13:48:00,70.3,52.4,29.88,WNW,290,3.0,13.0,53,0.00,,,0.00,Wunderground v.1.15,2013-08-10 17:48:00,
2013-08-10 13:49:00,70.4,53.0,29.89,SW,236,1.0,13.0,54,0.00,,,0.00,Wunderground v.1.15,2013-08-10 17:49:00,
2013-08-10 13:50:00,70.4,53.0,29.89,WNW,290,7.0,13.0,54,0.00,,,0.00,Wunderground v.1.15,2013-08-10 17:50:00,
2013-08-10 13:51:00,70.3,50.2,29.89,WNW,294,4.0,9.0,49,0.00,,,0.00,Wunderground v.1.15,2013-08-10 17:51:00,
2013-08-10 13:53:00,70.3,49.7,29.88,NNE,31,1.0,12.0,48,0.00,,,0.00,Wunderground v.1.15,2013-08-10 17:53:00,
2013-08-10 13:54:00,70.3,51.3,29.89,SSW,207,5.0,12.0,51,0.00,,,0.00,Wunderground v.1.15,2013-08-10 17:54:00,
2013-08-10 13:55:00,70.3,51.3,29.89,West,264,3.0,12.0,51,0.00,,,0.00,Wunderground v.1.15,2013-08-10 17:55:00,
2013-08-10 13:57:00,70.4,49.8,29.89,North,9,4.0,12.0,48,0.00,,,0.00,Wunderground v.1.15,2013-08-10 17:57:00,
2013-08-10 13:58:00,70.6,50.0,29.88,West,281,2.0,12.0,48,0.00,,,0.00,Wunderground v.1.15,2013-08-10 17:58:00,
2013-08-10 14:00:00,70.8,50.7,29.88,West,259,6.0,12.0,49,0.00,,,0.00,Wunderground v.1.15,2013-08-10 18:00:00,
2013-08-10 14:02:00,71.2,51.6,29.88,SSW,205,3.0,9.0,50,0.00,,,0.00,Wunderground v.1.15,2013-08-10 18:02:00,
2013-08-10 14:03:00,71.3,54.3,29.89,WSW,248,8.0,10.0,55,0.00,,,0.00,Wunderground v.1.15,2013-08-10 18:03:00,
2013-08-10 14:05:00,71.2,50.5,29.89,NNW,337,4.0,10.0,48,0.00,,,0.00,Wunderground v.1.15,2013-08-10 18:05:00,
2013-08-10 14:06:00,71.0,49.7,29.89,WNW,302,8.0,11.0,47,0.00,,,0.00,Wunderground v.1.15,2013-08-10 18:06:00,
2013-08-10 14:07:00,70.8,49.0,29.89,NW,311,4.0,11.0,46,0.00,,,0.00,Wunderground v.1.15,2013-08-10 18:07:00,
2013-08-10 14:09:00,70.4,49.2,29.89,West,260,3.0,12.0,47,0.00,,,0.00,Wunderground v.1.15,2013-08-10 18:09:00,
2013-08-10 14:10:00,70.3,49.7,29.89,WSW,239,8.0,12.0,48,0.00,,,0.00,Wunderground v.1.15,2013-08-10 18:10:00,
2013-08-10 14:11:00,70.2,50.1,29.89,SSE,161,9.0,15.0,49,0.00,,,0.00,Wunderground v.1.15,2013-08-10 18:11:00,
2013-08-10 14:12:00,70.1,49.5,29.88,West,281,3.0,15.0,48,0.00,,,0.00,Wunderground v.1.15,2013-08-10 18:12:00,
2013-08-10 14:14:00,70.1,49.5,29.88,West,269,2.0,15.0,48,0.00,,,0.00,Wunderground v.1.15,2013-08-10 18:14:00,
2013-08-10 14:15:00,70.1,49.5,29.88,WNW,294,6.0,15.0,48,0.00,,,0.00,Wunderground v.1.15,2013-08-10 18:15:00,
2013-08-10 14:16:00,70.1,51.7,29.88,SW,217,1.0,15.0,52,0.00,,,0.00,Wunderground v.1.15,2013-08-10 18:16:00,
2013-08-10 14:17:00,70.1,54.2,29.88,SSW,205,2.0,15.0,57,0.00,,,0.00,Wunderground v.1.15,2013-08-10 18:17:00,
2013-08-10 14:19:00,70.2,51.7,29.88,West,264,4.0,15.0,52,0.00,,,0.00,Wunderground v.1.15,2013-08-10 18:19:00,
2013-08-10 14:21:00,70.1,52.7,29.89,WNW,298,0.0,4.0,54,0.00,,,0.00,Wunderground v.1.15,2013-08-10 18:21:00,
2013-08-10 14:22:00,70.2,54.2,29.88,WSW,239,6.0,7.0,57,0.00,,,0.00,Wunderground v.1.15,2013-08-10 18:22:00,
2013-08-10 14:25:00,70.2,51.2,29.88,SSE,147,6.0,11.0,51,0.00,,,0.00,Wunderground v.1.15,2013-08-10 18:25:00,
2013-08-10 14:26:00,70.1,51.1,29.88,SSW,203,2.0,11.0,51,0.00,,,0.00,Wunderground v.1.15,2013-08-10 18:26:00,
2013-08-10 14:27:00,70.0,51.0,29.88,SSW,200,2.0,11.0,51,0.00,,,0.00,Wunderground v.1.15,2013-08-10 18:27:00,
2013-08-10 14:28:00,69.9,51.5,29.88,SSE,166,5.0,11.0,52,0.00,,,0.00,Wunderground v.1.15,2013-08-10 18:28:00,
2013-08-10 14:31:00,69.5,52.1,29.89,West,259,7.0,9.0,54,0.00,,,0.00,Wunderground v.1.15,2013-08-10 18:31:00,
2013-08-10 14:32:00,69.3,49.9,29.89,South,171,5.0,9.0,50,0.00,,,0.00,Wunderground v.1.15,2013-08-10 18:32:00,
2013-08-10 14:33:00,69.2,51.8,29.89,SSE,162,1.0,9.0,54,0.00,,,0.00,Wunderground v.1.15,2013-08-10 18:33:00,
2013-08-10 14:36:00,69.0,52.6,29.88,WSW,239,0.0,9.0,56,0.00,,,0.00,Wunderground v.1.15,2013-08-10 18:36:00,
2013-08-10 14:37:00,68.9,53.0,29.88,NW,309,4.0,9.0,57,0.00,,,0.00,Wunderground v.1.15,2013-08-10 18:37:00,
2013-08-10 14:38:00,68.8,50.5,29.89,SSE,165,0.0,9.0,52,0.00,,,0.00,Wunderground v.1.15,2013-08-10 18:38:00,
2013-08-10 14:42:00,69.3,52.9,29.88,West,279,4.0,6.0,56,0.00,,,0.00,Wunderground v.1.15,2013-08-10 18:42:00,
2013-08-10 14:43:00,69.4,51.5,29.88,West,276,1.0,6.0,53,0.00,,,0.00,Wunderground v.1.15,2013-08-10 18:43:00,
2013-08-10 14:47:00,70.6,52.1,29.88,NW,321,6.0,6.0,52,0.00,,,0.00,Wunderground v.1.15,2013-08-10 18:47:00,
2013-08-10 14:49:00,70.8,51.8,29.89,WSW,240,2.0,16.0,51,0.00,,,0.00,Wunderground v.1.15,2013-08-10 18:49:00,
2013-08-10 14:52:00,70.9,49.7,29.88,ENE,74,1.0,8.0,47,0.00,,,0.00,Wunderground v.1.15,2013-08-10 18:52:00,
2013-08-10 14:54:00,70.9,49.7,29.88,WNW,286,2.0,8.0,47,0.00,,,0.00,Wunderground v.1.15,2013-08-10 18:54:00,
2013-08-10 14:55:00,70.9,51.9,29.89,SW,236,0.0,8.0,51,0.00,,,0.00,Wunderground v.1.15,2013-08-10 18:55:00,
2013-08-10 14:58:00,70.8,51.2,29.89,North,355,1.0,8.0,50,0.00,,,0.00,Wunderground v.1.15,2013-08-10 18:58:00,
2013-08-10 14:59:00,70.7,51.7,29.89,SSE,157,2.0,10.0,51,0.00,,,0.00,Wunderground v.1.15,2013-08-10 18:59:00,
2013-08-10 15:00:00,70.7,51.7,29.89,NW,309,5.0,10.0,51,0.00,,,0.00,Wunderground v.1.15,2013-08-10 19:00:00,
2013-08-10 15:03:00,70.7,53.2,29.89,SW,229,6.0,11.0,54,0.00,,,0.00,Wunderground v.1.15,2013-08-10 19:03:00,
2013-08-10 15:04:00,70.8,53.8,29.89,West,275,0.0,11.0,55,0.00,,,0.00,Wunderground v.1.15,2013-08-10 19:04:00,
2013-08-10 15:05:00,70.9,53.9,29.89,South,181,1.0,11.0,55,0.00,,,0.00,Wunderground v.1.15,2013-08-10 19:05:00,
2013-08-10 15:08:00,71.2,53.7,29.89,West,281,3.0,11.0,54,0.00,,,0.00,Wunderground v.1.15,2013-08-10 19:08:00,
2013-08-10 15:09:00,71.3,55.3,29.89,SW,224,0.0,11.0,57,0.00,,,0.00,Wunderground v.1.15,2013-08-10 19:09:00,
2013-08-10 15:10:00,71.3,55.3,29.89,SW,233,2.0,11.0,57,0.00,,,0.00,Wunderground v.1.15,2013-08-10 19:10:00,
2013-08-10 15:13:00,71.6,50.9,29.89,NNW,332,5.0,16.0,48,0.00,,,0.00,Wunderground v.1.15,2013-08-10 19:13:00,
2013-08-10 15:14:00,71.5,50.8,29.89,SW,230,4.0,16.0,48,0.00,,,0.00,Wunderground v.1.15,2013-08-10 19:14:00,
2013-08-10 15:15:00,71.5,51.9,29.89,NE,55,4.0,16.0,50,0.00,,,0.00,Wunderground v.1.15,2013-08-10 19:15:00,
2013-08-10 15:16:00,71.5,52.4,29.88,East,94,0.0,16.0,51,0.00,,,0.00,Wunderground v.1.15,2013-08-10 19:16:00,
2013-08-10 15:19:00,71.7,52.6,29.89,WSW,256,4.0,16.0,51,0.00,,,0.00,Wunderground v.1.15,2013-08-10 19:19:00,
2013-08-10 15:21:00,71.8,52.7,29.89,South,179,1.0,3.0,51,0.00,,,0.00,Wunderground v.1.15,2013-08-10 19:21:00,
2013-08-10 15:24:00,71.7,52.6,29.89,ESE,117,2.0,10.0,51,0.00,,,0.00,Wunderground v.1.15,2013-08-10 19:24:00,
2013-08-10 15:25:00,71.7,50.4,29.89,West,272,3.0,10.0,47,0.00,,,0.00,Wunderground v.1.15,2013-08-10 19:25:00,
2013-08-10 15:26:00,71.6,52.0,29.88,SSE,158,8.0,10.0,50,0.00,,,0.00,Wunderground v.1.15,2013-08-10 19:26:00,
2013-08-10 15:30:00,71.4,51.8,29.89,SSE,150,4.0,15.0,50,0.00,,,0.00,Wunderground v.1.15,2013-08-10 19:30:00,
2013-08-10 15:31:00,71.3,50.0,29.89,SSE,157,1.0,6.0,47,0.00,,,0.00,Wunderground v.1.15,2013-08-10 19:31:00,
2013-08-10 15:32:00,71.3,52.2,29.89,West,269,12.0,12.0,51,0.00,,,0.00,Wunderground v.1.15,2013-08-10 19:32:00,
2013-08-10 15:35:00,71.2,52.1,29.89,NW,315,7.0,12.0,51,0.00,,,0.00,Wunderground v.1.15,2013-08-10 19:35:00,
2013-08-10 15:36:00,71.3,52.2,29.89,SSW,192,3.0,12.0,51,0.00,,,0.00,Wunderground v.1.15,2013-08-10 19:36:00,
2013-08-10 15:38:00,71.3,51.7,29.89,WSW,248,2.0,12.0,50,0.00,,,0.00,Wunderground v.1.15,2013-08-10 19:38:00,
2013-08-10 15:40:00,71.5,52.4,29.89,West,275,1.0,3.0,51,0.00,,,0.00,Wunderground v.1.15,2013-08-10 19:40:00,
2013-08-10 15:41:00,71.6,54.6,29.88,NW,310,0.0,3.0,55,0.00,,,0.00,Wunderground v.1.15,2013-08-10 19:41:00,
2013-08-10 15:43:00,71.7,53.1,29.88,North,351,2.0,7.0,52,0.00,,,0.00,Wunderground v.1.15,2013-08-10 19:43:00,
2013-08-10 15:45:00,71.9,52.8,29.88,West,276,10.0,10.0,51,0.00,,,0.00,Wunderground v.1.15,2013-08-10 19:45:00,
2013-08-10 15:46:00,71.7,52.1,29.89,WSW,240,1.0,10.0,50,0.00,,,0.00,Wunderground v.1.15,2013-08-10 19:46:00,
2013-08-10 15:47:00,71.6,52.0,29.89,WSW,242,0.0,10.0,50,0.00,,,0.00,Wunderground v.1.15,2013-08-10 19:47:00,
2013-08-10 15:49:00,71.4,52.9,29.89,WSW,252,2.0,10.0,52,0.00,,,0.00,Wunderground v.1.15,2013-08-10 19:49:00,
2013-08-10 15:50:00,71.4,52.9,29.89,WSW,240,7.0,9.0,52,0.00,,,0.00,Wunderground v.1.15,2013-08-10 19:50:00,
2013-08-10 15:51:00,71.3,54.8,29.89,SE,144,4.0,9.0,56,0.00,,,0.00,Wunderground v.1.15,2013-08-10 19:51:00,
2013-08-10 15:52:00,71.3,54.8,29.89,ESE,113,0.0,9.0,56,0.00,,,0.00,Wunderground v.1.15,2013-08-10 19:52:00,
2013-08-10 15:55:00,71.4,52.3,29.89,WNW,284,3.0,10.0,51,0.00,,,0.00,Wunderground v.1.15,2013-08-10 19:55:00,
2013-08-10 15:56:00,71.4,52.9,29.89,South,188,3.0,10.0,52,0.00,,,0.00,Wunderground v.1.15,2013-08-10 19:56:00,
2013-08-10 15:57:00,71.4,52.3,29.89,WNW,297,1.0,10.0,51,0.00,,,0.00,Wunderground v.1.15,2013-08-10 19:57:00,
2013-08-10 15:58:00,71.4,52.9,29.89,SW,219,2.0,10.0,52,0.00,,,0.00,Wunderground v.1.15,2013-08-10 19:58:00,
2013-08-10 16:00:00,71.3,51.1,29.89,NW,308,5.0,5.0,49,0.00,,,0.00,Wunderground v.1.15,2013-08-10 20:00:00,
2013-08-10 16:01:00,71.2,51.1,29.89,South,187,6.0,6.0,49,0.00,,,0.00,Wunderground v.1.15,2013-08-10 20:01:00,
2013-08-10 16:02:00,71.2,51.6,29.89,WNW,302,2.0,6.0,50,0.00,,,0.00,Wunderground v.1.15,2013-08-10 20:02:00,
2013-08-10 16:03:00,71.2,51.6,29.89,SSW,200,3.0,7.0,50,0.00,,,0.00,Wunderground v.1.15,2013-08-10 20:03:00,
2013-08-10 16:06:00,71.1,52.0,29.89,WSW,249,0.0,11.0,51,0.00,,,0.00,Wunderground v.1.15,2013-08-10 20:06:00,
2013-08-10 16:07:00,71.1,53.6,29.89,SW,221,0.0,11.0,54,0.00,,,0.00,Wunderground v.1.15,2013-08-10 20:07:00,
2013-08-10 16:08:00,71.2,53.2,29.90,SW,218,3.0,11.0,53,0.00,,,0.00,Wunderground v.1.15,2013-08-10 20:08:00,
2013-08-10 16:11:00,71.1,51.0,29.89,NNW,342,3.0,4.0,49,0.00,,,0.00,Wunderground v.1.15,2013-08-10 20:11:00,
2013-08-10 16:12:00,71.1,52.6,29.89,WNW,290,1.0,7.0,52,0.00,,,0.00,Wunderground v.1.15,2013-08-10 20:12:00,
2013-08-10 16:13:00,71.2,53.7,29.89,South,178,8.0,9.0,54,0.00,,,0.00,Wunderground v.1.15,2013-08-10 20:13:00,
2013-08-10 16:16:00,71.2,51.6,29.89,SW,222,0.0,11.0,50,0.00,,,0.00,Wunderground v.1.15,2013-08-10 20:16:00,
2013-08-10 16:17:00,71.2,52.1,29.89,WNW,289,7.0,11.0,51,0.00,,,0.00,Wunderground v.1.15,2013-08-10 20:17:00,
2013-08-10 16:18:00,71.3,52.2,29.89,WSW,244,2.0,11.0,51,0.00,,,0.00,Wunderground v.1.15,2013-08-10 20:18:00,
2013-08-10 16:22:00,71.4,50.7,29.89,West,271,1.0,7.0,48,0.00,,,0.00,Wunderground v.1.15,2013-08-10 20:22:00,
2013-08-10 16:23:00,71.4,50.7,29.89,SSW,208,5.0,9.0,48,0.00,,,0.00,Wunderground v.1.15,2013-08-10 20:23:00,
2013-08-10 16:27:00,71.2,51.6,29.89,WNW,302,0.0,9.0,50,0.00,,,0.00,Wunderground v.1.15,2013-08-10 20:27:00,
2013-08-10 16:28:00,71.2,51.6,29.89,West,278,2.0,9.0,50,0.00,,,0.00,Wunderground v.1.15,2013-08-10 20:28:00,
2013-08-10 16:29:00,71.3,53.3,29.89,WSW,238,0.0,9.0,53,0.00,,,0.00,Wunderground v.1.15,2013-08-10 20:29:00,
2013-08-10 16:32:00,71.5,51.9,29.90,SE,126,4.0,8.0,50,0.00,,,0.00,Wunderground v.1.15,2013-08-10 20:32:00,
2013-08-10 16:33:00,71.5,51.9,29.90,SSW,199,5.0,8.0,50,0.00,,,0.00,Wunderground v.1.15,2013-08-10 20:33:00,
2013-08-10 16:34:00,71.3,51.7,29.90,West,269,6.0,8.0,50,0.00,,,0.00,Wunderground v.1.15,2013-08-10 20:34:00,
2013-08-10 16:38:00,71.2,52.7,29.90,West,262,0.0,8.0,52,0.00,,,0.00,Wunderground v.1.15,2013-08-10 20:38:00,
2013-08-10 16:40:00,71.1,51.0,29.90,SE,146,0.0,3.0,49,0.00,,,0.00,Wunderground v.1.15,2013-08-10 20:40:00,
2013-08-10 16:43:00,71.0,50.9,29.90,West,275,3.0,6.0,49,0.00,,,0.00,Wunderground v.1.15,2013-08-10 20:43:00,
2013-08-10 16:44:00,71.0,50.9,29.90,NNW,343,0.0,6.0,49,0.00,,,0.00,Wunderground v.1.15,2013-08-10 20:44:00,
2013-08-10 16:45:00,71.0,52.0,29.90,SSW,212,6.0,6.0,51,0.00,,,0.00,Wunderground v.1.15,2013-08-10 20:45:00,
2013-08-10 16:48:00,71.2,54.7,29.90,West,259,1.0,7.0,56,0.00,,,0.00,Wunderground v.1.15,2013-08-10 20:48:00,
2013-08-10 16:49:00,71.2,52.1,29.89,WNW,296,1.0,7.0,51,0.00,,,0.00,Wunderground v.1.15,2013-08-10 20:49:00,
2013-08-10 16:50:00,71.2,52.7,29.90,ESE,118,2.0,10.0,52,0.00,,,0.00,Wunderground v.1.15,2013-08-10 20:50:00,
2013-08-10 16:53:00,71.1,52.0,29.90,West,267,3.0,6.0,51,0.00,,,0.00,Wunderground v.1.15,2013-08-10 20:53:00,
2013-08-10 16:54:00,71.1,53.1,29.90,West,281,0.0,6.0,53,0.00,,,0.00,Wunderground v.1.15,2013-08-10 20:54:00,
2013-08-10 16:55:00,71.1,53.6,29.90,West,269,8.0,12.0,54,0.00,,,0.00,Wunderground v.1.15,2013-08-10 20:55:00,
2013-08-10 16:58:00,70.9,53.4,29.90,SW,234,5.0,12.0,54,0.00,,,0.00,Wunderground v.1.15,2013-08-10 20:58:00,
2013-08-10 16:59:00,70.8,51.8,29.90,SW,215,0.0,12.0,51,0.00,,,0.00,Wunderground v.1.15,2013-08-10 20:59:00,
2013-08-10 17:00:00,70.8,52.8,29.90,West,268,7.0,12.0,53,0.00,,,0.00,Wunderground v.1.15,2013-08-10 21:00:00,
2013-08-10 17:04:00,70.3,51.8,29.90,WNW,282,6.0,13.0,52,0.00,,,0.00,Wunderground v.1.15,2013-08-10 21:04:00,
2013-08-10 17:05:00,70.2,49.0,29.90,SW,221,5.0,13.0,47,0.00,,,0.00,Wunderground v.1.15,2013-08-10 21:05:00,
2013-08-10 17:10:00,70.2,49.6,29.90,WSW,249,3.0,13.0,48,0.00,,,0.00,Wunderground v.1.15,2013-08-10 21:10:00,
2013-08-10 17:11:00,70.2,50.7,29.90,South,188,1.0,6.0,50,0.00,,,0.00,Wunderground v.1.15,2013-08-10 21:11:00,
2013-08-10 17:15:00,70.3,50.2,29.90,NNW,348,5.0,10.0,49,0.00,,,0.00,Wunderground v.1.15,2013-08-10 21:15:00,
2013-08-10 17:16:00,70.3,50.8,29.90,West,274,6.0,10.0,50,0.00,,,0.00,Wunderground v.1.15,2013-08-10 21:16:00,
2013-08-10 17:20:00,70.3,50.2,29.90,SW,231,2.0,3.0,49,0.00,,,0.00,Wunderground v.1.15,2013-08-10 21:20:00,
2013-08-10 17:21:00,70.3,49.7,29.90,SW,231,4.0,6.0,48,0.00,,,0.00,Wunderground v.1.15,2013-08-10 21:21:00,
2013-08-10 17:22:00,70.3,49.7,29.90,SSE,164,2.0,6.0,48,0.00,,,0.00,Wunderground v.1.15,2013-08-10 21:22:00,
2013-08-10 17:25:00,70.3,50.8,29.90,SSW,192,0.0,7.0,50,0.00,,,0.00,Wunderground v.1.15,2013-08-10 21:25:00,
2013-08-10 17:26:00,70.4,50.9,29.90,SSE,150,5.0,7.0,50,0.00,,,0.00,Wunderground v.1.15,2013-08-10 21:26:00,
2013-08-10 17:27:00,70.4,50.9,29.90,SSW,212,4.0,7.0,50,0.00,,,0.00,Wunderground v.1.15,2013-08-10 21:27:00,
2013-08-10 17:30:00,70.4,52.4,29.90,NNW,333,1.0,2.0,53,0.00,,,0.00,Wunderground v.1.15,2013-08-10 21:30:00,
2013-08-10 17:32:00,70.5,52.0,29.90,WNW,293,0.0,4.0,52,0.00,,,0.00,Wunderground v.1.15,2013-08-10 21:32:00,
2013-08-10 17:33:00,70.5,54.0,29.90,ESE,107,2.0,8.0,56,0.00,,,0.00,Wunderground v.1.15,2013-08-10 21:33:00,
2013-08-10 17:35:00,70.6,53.1,29.90,NNE,13,0.0,8.0,54,0.00,,,0.00,Wunderground v.1.15,2013-08-10 21:35:00,
2013-08-10 17:37:00,70.6,52.6,29.90,WSW,242,7.0,8.0,53,0.00,,,0.00,Wunderground v.1.15,2013-08-10 21:37:00,
2013-08-10 17:38:00,70.6,51.1,29.90,NW,312,3.0,8.0,50,0.00,,,0.00,Wunderground v.1.15,2013-08-10 21:38:00,
2013-08-10 17:41:00,70.4,50.3,29.90,South,188,0.0,2.0,49,0.00,,,0.00,Wunderground v.1.15,2013-08-10 21:41:00,
2013-08-10 17:42:00,70.4,49.8,29.90,WNW,286,4.0,7.0,48,0.00,,,0.00,Wunderground v.1.15,2013-08-10 21:42:00,
2013-08-10 17:43:00,70.4,49.8,29.90,West,280,4.0,7.0,48,0.00,,,0.00,Wunderground v.1.15,2013-08-10 21:43:00,
2013-08-10 17:44:00,70.4,51.4,29.90,NNW,342,1.0,7.0,51,0.00,,,0.00,Wunderground v.1.15,2013-08-10 21:44:00,
2013-08-10 17:46:00,70.4,50.9,29.90,West,267,7.0,7.0,50,0.00,,,0.00,Wunderground v.1.15,2013-08-10 21:46:00,
2013-08-10 17:47:00,70.4,51.4,29.91,SW,221,1.0,8.0,51,0.00,,,0.00,Wunderground v.1.15,2013-08-10 21:47:00,
2013-08-10 17:48:00,70.3,51.3,29.91,SSW,207,3.0,8.0,51,0.00,,,0.00,Wunderground v.1.15,2013-08-10 21:48:00,
2013-08-10 17:50:00,70.2,51.7,29.91,WNW,292,4.0,8.0,52,0.00,,,0.00,Wunderground v.1.15,2013-08-10 21:50:00,
2013-08-10 17:51:00,70.2,50.1,29.91,South,169,6.0,6.0,49,0.00,,,0.00,Wunderground v.1.15,2013-08-10 21:51:00,
2013-08-10 17:52:00,70.1,51.7,29.91,SW,216,0.0,6.0,52,0.00,,,0.00,Wunderground v.1.15,2013-08-10 21:52:00,
2013-08-10 17:53:00,70.1,51.7,29.90,SW,224,1.0,6.0,52,0.00,,,0.00,Wunderground v.1.15,2013-08-10 21:53:00,
2013-08-10 17:55:00,70.1,50.6,29.91,WNW,302,2.0,7.0,50,0.00,,,0.00,Wunderground v.1.15,2013-08-10 21:55:00,
2013-08-10 17:56:00,70.0,50.5,29.91,SW,229,4.0,7.0,50,0.00,,,0.00,Wunderground v.1.15,2013-08-10 21:56:00,
2013-08-10 17:58:00,69.9,50.9,29.91,SW,229,1.0,7.0,51,0.00,,,0.00,Wunderground v.1.15,2013-08-10 21:58:00,
2013-08-10 18:00:00,69.9,50.9,29.90,WNW,299,6.0,6.0,51,0.00,,,0.00,Wunderground v.1.15,2013-08-10 22:00:00,
2013-08-10 18:02:00,69.9,51.5,29.90,North,360,0.0,6.0,52,0.00,,,0.00,Wunderground v.1.15,2013-08-10 22:02:00,
2013-08-10 18:03:00,69.9,50.9,29.90,SSW,207,4.0,6.0,51,0.00,,,0.00,Wunderground v.1.15,2013-08-10 22:03:00,
2013-08-10 18:05:00,69.9,52.0,29.90,SW,234,0.0,6.0,53,0.00,,,0.00,Wunderground v.1.15,2013-08-10 22:05:00,
2013-08-10 18:07:00,69.7,51.8,29.91,NNW,327,0.0,6.0,53,0.00,,,0.00,Wunderground v.1.15,2013-08-10 22:07:00,
2013-08-10 18:08:00,69.5,51.1,29.91,West,263,7.0,9.0,52,0.00,,,0.00,Wunderground v.1.15,2013-08-10 22:08:00,
2013-08-10 18:09:00,69.3,50.9,29.90,WSW,242,1.0,9.0,52,0.00,,,0.00,Wunderground v.1.15,2013-08-10 22:09:00,
2013-08-10 18:10:00,69.1,52.2,29.90,WSW,257,0.0,2.0,55,0.00,,,0.00,Wunderground v.1.15,2013-08-10 22:10:00,
2013-08-10 18:12:00,68.8,52.5,29.90,WSW,242,1.0,8.0,56,0.00,,,0.00,Wunderground v.1.15,2013-08-10 22:12:00,
2013-08-10 18:14:00,68.7,52.4,29.91,West,259,7.0,8.0,56,0.00,,,0.00,Wunderground v.1.15,2013-08-10 22:14:00,
2013-08-10 18:15:00,68.7,50.9,29.91,NNW,343,1.0,8.0,53,0.00,,,0.00,Wunderground v.1.15,2013-08-10 22:15:00,
2013-08-10 18:16:00,68.6,50.8,29.91,WNW,295,2.0,8.0,53,0.00,,,0.00,Wunderground v.1.15,2013-08-10 22:16:00,
2013-08-10 18:17:00,68.4,51.1,29.91,ESE,105,0.0,8.0,54,0.00,,,0.00,Wunderground v.1.15,2013-08-10 22:17:00,
2013-08-10 18:19:00,68.3,51.5,29.91,West,260,0.0,8.0,55,0.00,,,0.00,Wunderground v.1.15,2013-08-10 22:19:00,
2013-08-10 18:20:00,68.2,52.4,29.91,WSW,242,0.0,8.0,57,0.00,,,0.00,Wunderground v.1.15,2013-08-10 22:20:00,
2013-08-10 18:21:00,68.0,50.7,29.91,East,88,0.0,4.0,54,0.00,,,0.00,Wunderground v.1.15,2013-08-10 22:21:00,
2013-08-10 18:23:00,67.9,51.1,29.91,SSW,202,0.0,4.0,55,0.00,,,0.00,Wunderground v.1.15,2013-08-10 22:23:00,
2013-08-10 18:24:00,68.0,51.2,29.91,South,184,1.0,4.0,55,0.00,,,0.00,Wunderground v.1.15,2013-08-10 22:24:00,
2013-08-10 18:25:00,68.0,51.2,29.91,SSW,196,0.0,4.0,55,0.00,,,0.00,Wunderground v.1.15,2013-08-10 22:25:00,
2013-08-10 18:26:00,68.1,53.7,29.91,NW,323,0.0,4.0,60,0.00,,,0.00,Wunderground v.1.15,2013-08-10 22:26:00,
2013-08-10 18:28:00,68.4,54.0,29.91,ENE,67,0.0,4.0,60,0.00,,,0.00,Wunderground v.1.15,2013-08-10 22:28:00,
2013-08-10 18:29:00,68.5,54.1,29.91,WNW,300,2.0,4.0,60,0.00,,,0.00,Wunderground v.1.15,2013-08-10 22:29:00,
2013-08-10 18:30:00,68.7,53.3,29.91,West,269,3.0,6.0,58,0.00,,,0.00,Wunderground v.1.15,2013-08-10 22:30:00,
2013-08-10 18:32:00,68.8,51.5,29.91,South,186,1.0,6.0,54,0.00,,,0.00,Wunderground v.1.15,2013-08-10 22:32:00,
2013-08-10 18:33:00,68.8,53.4,29.91,West,277,0.0,6.0,58,0.00,,,0.00,Wunderground v.1.15,2013-08-10 22:33:00,
2013-08-10 18:35:00,68.8,53.4,29.91,WSW,244,1.0,6.0,58,0.00,,,0.00,Wunderground v.1.15,2013-08-10 22:35:00,
2013-08-10 18:36:00,68.9,54.0,29.91,South,174,0.0,6.0,59,0.00,,,0.00,Wunderground v.1.15,2013-08-10 22:36:00,
2013-08-10 18:37:00,68.9,52.6,29.91,WNW,295,3.0,6.0,56,0.00,,,0.00,Wunderground v.1.15,2013-08-10 22:37:00,
2013-08-10 18:39:00,69.0,54.5,29.91,NNE,19,1.0,6.0,60,0.00,,,0.00,Wunderground v.1.15,2013-08-10 22:39:00,
2013-08-10 18:40:00,69.0,54.1,29.91,SSW,197,1.0,6.0,59,0.00,,,0.00,Wunderground v.1.15,2013-08-10 22:40:00,
2013-08-10 18:41:00,69.0,54.5,29.91,West,280,1.0,1.0,60,0.00,,,0.00,Wunderground v.1.15,2013-08-10 22:41:00,
2013-08-10 18:42:00,69.1,54.2,29.91,SSW,202,0.0,1.0,59,0.00,,,0.00,Wunderground v.1.15,2013-08-10 22:42:00,
2013-08-10 18:44:00,69.1,54.2,29.91,WSW,242,1.0,4.0,59,0.00,,,0.00,Wunderground v.1.15,2013-08-10 22:44:00,
2013-08-10 18:45:00,69.2,53.3,29.91,SSE,163,1.0,4.0,57,0.00,,,0.00,Wunderground v.1.15,2013-08-10 22:45:00,
2013-08-10 18:46:00,69.1,52.7,29.91,SSW,201,0.0,8.0,56,0.00,,,0.00,Wunderground v.1.15,2013-08-10 22:46:00,
2013-08-10 18:47:00,69.0,52.6,29.91,NNW,329,0.0,8.0,56,0.00,,,0.00,Wunderground v.1.15,2013-08-10 22:47:00,
2013-08-10 18:48:00,69.0,52.6,29.91,North,355,1.0,8.0,56,0.00,,,0.00,Wunderground v.1.15,2013-08-10 22:48:00,
2013-08-10 18:49:00,69.0,52.2,29.91,ENE,73,0.0,8.0,55,0.00,,,0.00,Wunderground v.1.15,2013-08-10 22:49:00,
2013-08-10 18:50:00,68.9,51.6,29.91,ESE,116,1.0,8.0,54,0.00,,,0.00,Wunderground v.1.15,2013-08-10 22:50:00,
2013-08-10 18:51:00,68.8,52.0,29.92,West,265,5.0,5.0,55,0.00,,,0.00,Wunderground v.1.15,2013-08-10 22:51:00,
2013-08-10 18:52:00,68.7,51.4,29.92,South,178,0.0,5.0,54,0.00,,,0.00,Wunderground v.1.15,2013-08-10 22:52:00,
2013-08-10 18:53:00,68.6,51.3,29.92,South,190,0.0,5.0,54,0.00,,,0.00,Wunderground v.1.15,2013-08-10 22:53:00,
2013-08-10 18:54:00,68.5,51.7,29.91,West,271,0.0,5.0,55,0.00,,,0.00,Wunderground v.1.15,2013-08-10 22:54:00,
2013-08-10 18:55:00,68.4,52.1,29.91,WNW,300,0.0,5.0,56,0.00,,,0.00,Wunderground v.1.15,2013-08-10 22:55:00,
2013-08-10 18:57:00,68.4,52.1,29.91,NE,55,0.0,5.0,56,0.00,,,0.00,Wunderground v.1.15,2013-08-10 22:57:00,
2013-08-10 18:58:00,68.3,52.0,29.92,South,191,2.0,5.0,56,0.00,,,0.00,Wunderground v.1.15,2013-08-10 22:58:00,
2013-08-10 18:59:00,68.3,52.5,29.92,South,171,0.0,5.0,57,0.00,,,0.00,Wunderground v.1.15,2013-08-10 22:59:00,
2013-08-10 19:01:00,68.1,51.3,29.92,NW,323,0.0,2.0,55,0.00,,,0.00,Wunderground v.1.15,2013-08-10 23:01:00,
2013-08-10 19:02:00,68.1,51.8,29.92,West,278,1.0,4.0,56,0.00,,,0.00,Wunderground v.1.15,2013-08-10 23:02:00,
2013-08-10 19:03:00,68.0,52.2,29.92,SW,216,0.0,6.0,57,0.00,,,0.00,Wunderground v.1.15,2013-08-10 23:03:00,
2013-08-10 19:04:00,67.9,51.1,29.92,West,263,0.0,6.0,55,0.00,,,0.00,Wunderground v.1.15,2013-08-10 23:04:00,
2013-08-10 19:06:00,67.8,51.0,29.92,NNW,339,0.0,8.0,55,0.00,,,0.00,Wunderground v.1.15,2013-08-10 23:06:00,
2013-08-10 19:07:00,67.7,50.9,29.92,WNW,290,0.0,8.0,55,0.00,,,0.00,Wunderground v.1.15,2013-08-10 23:07:00,
2013-08-10 19:08:00,67.6,50.9,29.92,WNW,288,0.0,8.0,55,0.00,,,0.00,Wunderground v.1.15,2013-08-10 23:08:00,
2013-08-10 19:09:00,67.5,51.2,29.92,West,259,3.0,8.0,56,0.00,,,0.00,Wunderground v.1.15,2013-08-10 23:09:00,
2013-08-10 19:12:00,67.4,51.6,29.92,WNW,286,1.0,3.0,57,0.00,,,0.00,Wunderground v.1.15,2013-08-10 23:12:00,
2013-08-10 19:13:00,67.2,51.0,29.92,SW,218,1.0,4.0,56,0.00,,,0.00,Wunderground v.1.15,2013-08-10 23:13:00,
2013-08-10 19:14:00,67.2,51.0,29.92,WSW,252,2.0,5.0,56,0.00,,,0.00,Wunderground v.1.15,2013-08-10 23:14:00,
2013-08-10 19:15:00,67.2,51.0,29.92,West,275,0.0,5.0,56,0.00,,,0.00,Wunderground v.1.15,2013-08-10 23:15:00,
2013-08-10 19:17:00,67.1,50.9,29.92,SW,233,1.0,5.0,56,0.00,,,0.00,Wunderground v.1.15,2013-08-10 23:17:00,
2013-08-10 19:19:00,67.0,51.3,29.92,West,270,0.0,5.0,57,0.00,,,0.00,Wunderground v.1.15,2013-08-10 23:19:00,
2013-08-10 19:20:00,67.0,51.3,29.92,SSW,200,0.0,1.0,57,0.00,,,0.00,Wunderground v.1.15,2013-08-10 23:20:00,
2013-08-10 19:22:00,66.9,51.2,29.92,WNW,284,5.0,5.0,57,0.00,,,0.00,Wunderground v.1.15,2013-08-10 23:22:00,
2013-08-10 19:23:00,66.9,51.2,29.92,NW,316,0.0,5.0,57,0.00,,,0.00,Wunderground v.1.15,2013-08-10 23:23:00,
2013-08-10 19:24:00,66.9,52.6,29.92,West,267,0.0,5.0,60,0.00,,,0.00,Wunderground v.1.15,2013-08-10 23:24:00,
2013-08-10 19:25:00,66.8,52.0,29.92,SW,233,0.0,5.0,59,0.00,,,0.00,Wunderground v.1.15,2013-08-10 23:25:00,
2013-08-10 19:27:00,66.7,51.5,29.92,West,261,0.0,5.0,58,0.00,,,0.00,Wunderground v.1.15,2013-08-10 23:27:00,
2013-08-10 19:28:00,66.6,51.8,29.92,WSW,249,0.0,5.0,59,0.00,,,0.00,Wunderground v.1.15,2013-08-10 23:28:00,
2013-08-10 19:29:00,66.6,51.8,29.92,WSW,249,0.0,5.0,59,0.00,,,0.00,Wunderground v.1.15,2013-08-10 23:29:00,
2013-08-10 19:30:00,66.5,52.2,29.92,WSW,249,0.0,0.0,60,0.00,,,0.00,Wunderground v.1.15,2013-08-10 23:30:00,
2013-08-10 19:31:00,66.4,52.5,29.92,WSW,249,0.0,0.0,61,0.00,,,0.00,Wunderground v.1.15,2013-08-10 23:31:00,
2013-08-10 19:33:00,66.3,52.0,29.92,NW,315,2.0,4.0,60,0.00,,,0.00,Wunderground v.1.15,2013-08-10 23:33:00,
2013-08-10 19:34:00,66.2,51.9,29.92,NNE,12,0.0,4.0,60,0.00,,,0.00,Wunderground v.1.15,2013-08-10 23:34:00,
2013-08-10 19:36:00,66.0,50.8,29.92,NNE,21,1.0,7.0,58,0.00,,,0.00,Wunderground v.1.15,2013-08-10 23:36:00,
2013-08-10 19:38:00,65.8,50.1,29.92,NW,318,1.0,7.0,57,0.00,,,0.00,Wunderground v.1.15,2013-08-10 23:38:00,
2013-08-10 19:39:00,65.7,51.4,29.92,NNE,21,0.0,7.0,60,0.00,,,0.00,Wunderground v.1.15,2013-08-10 23:39:00,
2013-08-10 19:41:00,65.4,50.7,29.92,NNW,331,3.0,4.0,59,0.00,,,0.00,Wunderground v.1.15,2013-08-10 23:41:00,
2013-08-10 19:42:00,65.4,50.7,29.92,NW,314,0.0,4.0,59,0.00,,,0.00,Wunderground v.1.15,2013-08-10 23:42:00,
2013-08-10 19:43:00,65.2,50.5,29.92,NW,317,0.0,4.0,59,0.00,,,0.00,Wunderground v.1.15,2013-08-10 23:43:00,
2013-08-10 19:44:00,65.2,51.0,29.92,NW,317,0.0,4.0,60,0.00,,,0.00,Wunderground v.1.15,2013-08-10 23:44:00,
2013-08-10 19:47:00,64.9,50.2,29.93,South,173,0.0,4.0,59,0.00,,,0.00,Wunderground v.1.15,2013-08-10 23:47:00,
2013-08-10 19:49:00,64.6,50.8,29.93,NW,312,0.0,4.0,61,0.00,,,0.00,Wunderground v.1.15,2013-08-10 23:49:00,
2013-08-10 19:51:00,64.3,50.1,29.93,WNW,292,0.0,1.0,60,0.00,,,0.00,Wunderground v.1.15,2013-08-10 23:51:00,
2013-08-10 19:52:00,64.2,50.5,29.93,West,270,1.0,1.0,61,0.00,,,0.00,Wunderground v.1.15,2013-08-10 23:52:00,
2013-08-10 19:54:00,63.8,50.5,29.93,WNW,294,3.0,4.0,62,0.00,,,0.00,Wunderground v.1.15,2013-08-10 23:54:00,
2013-08-10 19:55:00,63.8,50.1,29.93,NNW,329,2.0,4.0,61,0.00,,,0.00,Wunderground v.1.15,2013-08-10 23:55:00,
2013-08-10 19:56:00,63.7,50.0,29.93,NNE,26,5.0,6.0,61,0.00,,,0.00,Wunderground v.1.15,2013-08-10 23:56:00,
2013-08-10 19:57:00,63.5,49.8,29.93,WSW,245,3.0,6.0,61,0.00,,,0.00,Wunderground v.1.15,2013-08-10 23:57:00,
2013-08-10 20:00:00,63.2,50.0,29.93,NE,46,3.0,6.0,62,0.00,,,0.00,Wunderground v.1.15,2013-08-11 00:00:00,
2013-08-10 20:01:00,63.1,49.9,29.93,NE,52,0.0,5.0,62,0.00,,,0.00,Wunderground v.1.15,2013-08-11 00:01:00,
2013-08-10 20:02:00,63.0,49.8,29.93,North,5,1.0,5.0,62,0.00,,,0.00,Wunderground v.1.15,2013-08-11 00:02:00,
2013-08-10 20:05:00,62.9,49.7,29.93,ESE,111,0.0,6.0,62,0.00,,,0.00,Wunderground v.1.15,2013-08-11 00:05:00,
2013-08-10 20:06:00,62.8,49.6,29.93,North,349,3.0,8.0,62,0.00,,,0.00,Wunderground v.1.15,2013-08-11 00:06:00,
2013-08-10 20:08:00,62.7,49.9,29.93,North,355,0.0,8.0,63,0.00,,,0.00,Wunderground v.1.15,2013-08-11 00:08:00,
2013-08-10 20:09:00,62.6,49.8,29.93,NNE,13,3.0,8.0,63,0.00,,,0.00,Wunderground v.1.15,2013-08-11 00:09:00,
2013-08-10 20:10:00,62.5,49.7,29.93,North,355,5.0,9.0,63,0.00,,,0.00,Wunderground v.1.15,2013-08-11 00:10:00,
2013-08-10 20:12:00,62.4,48.8,29.94,SSW,196,0.0,4.0,61,0.00,,,0.00,Wunderground v.1.15,2013-08-11 00:12:00,
2013-08-10 20:13:00,62.4,49.2,29.93,NNW,341,0.0,4.0,62,0.00,,,0.00,Wunderground v.1.15,2013-08-11 00:13:00,
2013-08-10 20:14:00,62.3,49.1,29.93,ENE,65,0.0,4.0,62,0.00,,,0.00,Wunderground v.1.15,2013-08-11 00:14:00,
2013-08-10 20:16:00,62.3,49.1,29.94,West,277,1.0,4.0,62,0.00,,,0.00,Wunderground v.1.15,2013-08-11 00:16:00,
2013-08-10 20:17:00,62.2,49.0,29.94,NNW,332,0.0,5.0,62,0.00,,,0.00,Wunderground v.1.15,2013-08-11 00:17:00,
2013-08-10 20:19:00,62.2,50.3,29.94,NE,54,1.0,5.0,65,0.00,,,0.00,Wunderground v.1.15,2013-08-11 00:19:00,
2013-08-10 20:20:00,62.1,49.4,29.94,SE,136,0.0,5.0,63,0.00,,,0.00,Wunderground v.1.15,2013-08-11 00:20:00,
2013-08-10 20:21:00,62.0,49.3,29.94,NNW,340,1.0,1.0,63,0.00,,,0.00,Wunderground v.1.15,2013-08-11 00:21:00,
2013-08-10 20:22:00,62.0,49.3,29.94,NNE,20,5.0,7.0,63,0.00,,,0.00,Wunderground v.1.15,2013-08-11 00:22:00,
2013-08-10 20:24:00,61.9,49.2,29.94,North,350,0.0,7.0,63,0.00,,,0.00,Wunderground v.1.15,2013-08-11 00:24:00,
2013-08-10 20:25:00,61.8,49.9,29.94,North,350,0.0,7.0,65,0.00,,,0.00,Wunderground v.1.15,2013-08-11 00:25:00,
2013-08-10 20:26:00,61.7,49.8,29.94,North,350,0.0,7.0,65,0.00,,,0.00,Wunderground v.1.15,2013-08-11 00:26:00,
2013-08-10 20:28:00,61.6,49.3,29.94,NW,305,0.0,7.0,64,0.00,,,0.00,Wunderground v.1.15,2013-08-11 00:28:00,
2013-08-10 20:29:00,61.6,49.3,29.94,WNW,303,0.0,7.0,64,0.00,,,0.00,Wunderground v.1.15,2013-08-11 00:29:00,
2013-08-10 20:30:00,61.4,49.1,29.94,NNE,31,1.0,6.0,64,0.00,,,0.00,Wunderground v.1.15,2013-08-11 00:30:00,
2013-08-10 20:31:00,61.4,49.1,29.94,NNW,332,1.0,6.0,64,0.00,,,0.00,Wunderground v.1.15,2013-08-11 00:31:00,
2013-08-10 20:33:00,61.3,49.4,29.95,WNW,294,0.0,6.0,65,0.00,,,0.00,Wunderground v.1.15,2013-08-11 00:33:00,
2013-08-10 20:34:00,61.2,49.3,29.95,NW,325,0.0,6.0,65,0.00,,,0.00,Wunderground v.1.15,2013-08-11 00:34:00,
2013-08-10 20:36:00,61.2,49.3,29.95,West,279,0.0,6.0,65,0.00,,,0.00,Wunderground v.1.15,2013-08-11 00:36:00,
2013-08-10 20:38:00,61.0,49.1,29.95,NE,44,0.0,6.0,65,0.00,,,0.00,Wunderground v.1.15,2013-08-11 00:38:00,
2013-08-10 20:39:00,60.9,49.5,29.95,West,281,0.0,6.0,66,0.00,,,0.00,Wunderground v.1.15,2013-08-11 00:39:00,
2013-08-10 20:41:00,60.8,49.8,29.95,NW,315,0.0,2.0,67,0.00,,,0.00,Wunderground v.1.15,2013-08-11 00:41:00,
2013-08-10 20:43:00,60.7,49.3,29.95,West,274,2.0,4.0,66,0.00,,,0.00,Wunderground v.1.15,2013-08-11 00:43:00,
2013-08-10 20:44:00,60.6,49.2,29.95,ENE,60,1.0,4.0,66,0.00,,,0.00,Wunderground v.1.15,2013-08-11 00:44:00,
2013-08-10 20:46:00,60.5,49.5,29.95,NE,40,1.0,5.0,67,0.00,,,0.00,Wunderground v.1.15,2013-08-11 00:46:00,
2013-08-10 20:47:00,60.5,49.5,29.95,NNW,343,0.0,5.0,67,0.00,,,0.00,Wunderground v.1.15,2013-08-11 00:47:00,
2013-08-10 20:48:00,60.4,49.4,29.95,NW,309,1.0,5.0,67,0.00,,,0.00,Wunderground v.1.15,2013-08-11 00:48:00,
2013-08-10 20:49:00,60.4,49.4,29.95,NW,311,0.0,5.0,67,0.00,,,0.00,Wunderground v.1.15,2013-08-11 00:49:00,
2013-08-10 20:51:00,60.3,49.7,29.96,NW,306,0.0,1.0,68,0.00,,,0.00,Wunderground v.1.15,2013-08-11 00:51:00,
2013-08-10 20:52:00,60.3,49.7,29.95,NW,306,0.0,1.0,68,0.00,,,0.00,Wunderground v.1.15,2013-08-11 00:52:00,
2013-08-10 20:53:00,60.2,49.6,29.96,NW,309,0.0,1.0,68,0.00,,,0.00,Wunderground v.1.15,2013-08-11 00:53:00,
2013-08-10 20:54:00,60.1,49.5,29.95,NW,309,0.0,1.0,68,0.00,,,0.00,Wunderground v.1.15,2013-08-11 00:54:00,
2013-08-10 20:56:00,60.0,49.4,29.96,NW,321,0.0,2.0,68,0.00,,,0.00,Wunderground v.1.15,2013-08-11 00:56:00,
2013-08-10 20:57:00,60.0,49.4,29.96,North,355,1.0,2.0,68,0.00,,,0.00,Wunderground v.1.15,2013-08-11 00:57:00,
2013-08-10 20:58:00,59.9,49.3,29.96,SSW,202,0.0,2.0,68,0.00,,,0.00,Wunderground v.1.15,2013-08-11 00:58:00,
2013-08-10 21:00:00,59.8,49.6,29.96,NW,314,3.0,3.0,69,0.00,,,0.00,Wunderground v.1.15,2013-08-11 01:00:00,
2013-08-10 21:01:00,59.8,49.6,29.96,NNW,335,3.0,4.0,69,0.00,,,0.00,Wunderground v.1.15,2013-08-11 01:01:00,
2013-08-10 21:02:00,59.7,49.5,29.96,NW,321,0.0,4.0,69,0.00,,,0.00,Wunderground v.1.15,2013-08-11 01:02:00,
2013-08-10 21:03:00,59.7,49.5,29.96,WSW,254,1.0,4.0,69,0.00,,,0.00,Wunderground v.1.15,2013-08-11 01:03:00,
2013-08-10 21:04:00,59.6,49.4,29.96,WNW,302,0.0,4.0,69,0.00,,,0.00,Wunderground v.1.15,2013-08-11 01:04:00,
2013-08-10 21:05:00,59.6,49.4,29.96,NE,40,0.0,4.0,69,0.00,,,0.00,Wunderground v.1.15,2013-08-11 01:05:00,
2013-08-10 21:07:00,59.5,49.3,29.96,WNW,292,0.0,4.0,69,0.00,,,0.00,Wunderground v.1.15,2013-08-11 01:07:00,
2013-08-10 21:08:00,59.5,49.7,29.96,WNW,292,0.0,4.0,70,0.00,,,0.00,Wunderground v.1.15,2013-08-11 01:08:00,
2013-08-10 21:09:00,59.4,49.2,29.96,WNW,292,0.0,4.0,69,0.00,,,0.00,Wunderground v.1.15,2013-08-11 01:09:00,
2013-08-10 21:10:00,59.4,49.2,29.97,NNW,340,4.0,6.0,69,0.00,,,0.00,Wunderground v.1.15,2013-08-11 01:10:00,
2013-08-10 21:12:00,59.4,49.6,29.97,North,355,1.0,6.0,70,0.00,,,0.00,Wunderground v.1.15,2013-08-11 01:12:00,
2013-08-10 21:13:00,59.4,49.6,29.97,NNE,32,0.0,6.0,70,0.00,,,0.00,Wunderground v.1.15,2013-08-11 01:13:00,
2013-08-10 21:14:00,59.3,49.9,29.97,NNE,15,2.0,6.0,71,0.00,,,0.00,Wunderground v.1.15,2013-08-11 01:14:00,
2013-08-10 21:16:00,59.2,49.4,29.96,WNW,285,0.0,6.0,70,0.00,,,0.00,Wunderground v.1.15,2013-08-11 01:16:00,
2013-08-10 21:17:00,59.2,49.4,29.97,SSW,194,0.0,6.0,70,0.00,,,0.00,Wunderground v.1.15,2013-08-11 01:17:00,
2013-08-10 21:18:00,59.2,49.4,29.97,SW,225,2.0,6.0,70,0.00,,,0.00,Wunderground v.1.15,2013-08-11 01:18:00,
2013-08-10 21:20:00,59.3,49.9,29.97,WNW,298,3.0,6.0,71,0.00,,,0.00,Wunderground v.1.15,2013-08-11 01:20:00,
2013-08-10 21:21:00,59.3,49.5,29.97,North,5,1.0,5.0,70,0.00,,,0.00,Wunderground v.1.15,2013-08-11 01:21:00,
2013-08-10 21:22:00,59.3,49.5,29.97,NNE,18,0.0,6.0,70,0.00,,,0.00,Wunderground v.1.15,2013-08-11 01:22:00,
2013-08-10 21:23:00,59.3,49.9,29.97,NNW,344,0.0,6.0,71,0.00,,,0.00,Wunderground v.1.15,2013-08-11 01:23:00,
2013-08-10 21:25:00,59.2,49.4,29.97,NW,306,0.0,6.0,70,0.00,,,0.00,Wunderground v.1.15,2013-08-11 01:25:00,
2013-08-10 21:26:00,59.2,49.4,29.97,North,360,0.0,6.0,70,0.00,,,0.00,Wunderground v.1.15,2013-08-11 01:26:00,
2013-08-10 21:28:00,59.2,49.8,29.97,NW,321,0.0,6.0,71,0.00,,,0.00,Wunderground v.1.15,2013-08-11 01:28:00,
2013-08-10 21:29:00,59.2,49.8,29.97,NW,321,0.0,6.0,71,0.00,,,0.00,Wunderground v.1.15,2013-08-11 01:29:00,
2013-08-10 21:30:00,59.1,49.3,29.97,West,278,1.0,1.0,70,0.00,,,0.00,Wunderground v.1.15,2013-08-11 01:30:00,
2013-08-10 21:31:00,59.1,49.3,29.97,West,278,0.0,1.0,70,0.00,,,0.00,Wunderground v.1.15,2013-08-11 01:31:00,
2013-08-10 21:34:00,59.1,49.3,29.97,NNE,13,0.0,3.0,70,0.00,,,0.00,Wunderground v.1.15,2013-08-11 01:34:00,
2013-08-10 21:35:00,59.0,49.2,29.97,NW,320,0.0,4.0,70,0.00,,,0.00,Wunderground v.1.15,2013-08-11 01:35:00,
2013-08-10 21:36:00,59.0,49.2,29.97,NW,320,0.0,4.0,70,0.00,,,0.00,Wunderground v.1.15,2013-08-11 01:36:00,
2013-08-10 21:37:00,59.0,49.2,29.97,NNW,339,1.0,4.0,70,0.00,,,0.00,Wunderground v.1.15,2013-08-11 01:37:00,
2013-08-10 21:39:00,59.0,49.6,29.97,NNW,339,0.0,4.0,71,0.00,,,0.00,Wunderground v.1.15,2013-08-11 01:39:00,
2013-08-10 21:41:00,59.0,49.2,29.97,NNW,339,0.0,1.0,70,0.00,,,0.00,Wunderground v.1.15,2013-08-11 01:41:00,
2013-08-10 21:42:00,59.0,49.6,29.97,NNW,339,0.0,1.0,71,0.00,,,0.00,Wunderground v.1.15,2013-08-11 01:42:00,
2013-08-10 21:44:00,58.9,49.5,29.97,NNW,339,0.0,1.0,71,0.00,,,0.00,Wunderground v.1.15,2013-08-11 01:44:00,
2013-08-10 21:46:00,58.9,49.1,29.97,NE,38,3.0,3.0,70,0.00,,,0.00,Wunderground v.1.15,2013-08-11 01:46:00,
2013-08-10 21:48:00,58.9,49.5,29.97,NE,38,0.0,3.0,71,0.00,,,0.00,Wunderground v.1.15,2013-08-11 01:48:00,
2013-08-10 21:49:00,58.8,49.4,29.97,North,350,0.0,3.0,71,0.00,,,0.00,Wunderground v.1.15,2013-08-11 01:49:00,
2013-08-10 21:51:00,58.7,49.3,29.98,North,350,0.0,0.0,71,0.00,,,0.00,Wunderground v.1.15,2013-08-11 01:51:00,
2013-08-10 21:52:00,58.7,49.3,29.97,North,350,0.0,0.0,71,0.00,,,0.00,Wunderground v.1.15,2013-08-11 01:52:00,
2013-08-10 21:53:00,58.7,49.3,29.97,North,350,0.0,0.0,71,0.00,,,0.00,Wunderground v.1.15,2013-08-11 01:53:00,
2013-08-10 21:55:00,58.6,49.6,29.98,North,350,0.0,0.0,72,0.00,,,0.00,Wunderground v.1.15,2013-08-11 01:55:00,
2013-08-10 21:57:00,58.4,49.4,29.98,North,350,0.0,0.0,72,0.00,,,0.00,Wunderground v.1.15,2013-08-11 01:57:00,
2013-08-10 21:58:00,58.4,49.4,29.98,North,350,0.0,0.0,72,0.00,,,0.00,Wunderground v.1.15,2013-08-11 01:58:00,
2013-08-10 22:00:00,58.3,49.3,29.98,North,350,0.0,1.0,72,0.00,,,0.00,Wunderground v.1.15,2013-08-11 02:00:00,
2013-08-10 22:01:00,58.3,49.3,29.98,North,350,0.0,0.0,72,0.00,,,0.00,Wunderground v.1.15,2013-08-11 02:01:00,
2013-08-10 22:02:00,58.2,49.2,29.98,NNE,28,0.0,1.0,72,0.00,,,0.00,Wunderground v.1.15,2013-08-11 02:02:00,
2013-08-10 22:03:00,58.2,49.2,29.98,NNE,15,0.0,5.0,72,0.00,,,0.00,Wunderground v.1.15,2013-08-11 02:03:00,
2013-08-10 22:05:00,58.2,49.2,29.98,NW,319,0.0,5.0,72,0.00,,,0.00,Wunderground v.1.15,2013-08-11 02:05:00,
2013-08-10 22:06:00,58.1,49.5,29.98,NW,319,0.0,5.0,73,0.00,,,0.00,Wunderground v.1.15,2013-08-11 02:06:00,
2013-08-10 22:07:00,58.1,49.1,29.98,NE,41,0.0,5.0,72,0.00,,,0.00,Wunderground v.1.15,2013-08-11 02:07:00,
2013-08-10 22:08:00,58.1,49.1,29.98,NE,40,0.0,5.0,72,0.00,,,0.00,Wunderground v.1.15,2013-08-11 02:08:00,
2013-08-10 22:11:00,58.0,49.4,29.98,NW,316,0.0,0.0,73,0.00,,,0.00,Wunderground v.1.15,2013-08-11 02:11:00,
2013-08-10 22:13:00,58.0,49.4,29.98,NW,310,0.0,3.0,73,0.00,,,0.00,Wunderground v.1.15,2013-08-11 02:13:00,
2013-08-10 22:16:00,58.0,49.4,29.98,NNW,348,0.0,3.0,73,0.00,,,0.00,Wunderground v.1.15,2013-08-11 02:16:00,
2013-08-10 22:18:00,57.9,49.3,29.98,NNW,336,0.0,5.0,73,0.00,,,0.00,Wunderground v.1.15,2013-08-11 02:18:00,
2013-08-10 22:19:00,57.9,49.3,29.98,NNW,336,0.0,5.0,73,0.00,,,0.00,Wunderground v.1.15,2013-08-11 02:19:00,
2013-08-10 22:21:00,57.8,49.2,29.98,NNW,336,0.0,0.0,73,0.00,,,0.00,Wunderground v.1.15,2013-08-11 02:21:00,
2013-08-10 22:22:00,57.8,49.2,29.98,NNW,336,1.0,1.0,73,0.00,,,0.00,Wunderground v.1.15,2013-08-11 02:22:00,
2013-08-10 22:23:00,57.8,49.2,29.98,NNW,336,0.0,1.0,73,0.00,,,0.00,Wunderground v.1.15,2013-08-11 02:23:00,
2013-08-10 22:24:00,57.7,49.5,29.98,NNW,336,0.0,1.0,74,0.00,,,0.00,Wunderground v.1.15,2013-08-11 02:24:00,
2013-08-10 22:26:00,57.5,49.6,29.98,NNW,336,0.0,1.0,75,0.00,,,0.00,Wunderground v.1.15,2013-08-11 02:26:00,
2013-08-10 22:28:00,57.3,49.4,29.98,NNW,336,0.0,1.0,75,0.00,,,0.00,Wunderground v.1.15,2013-08-11 02:28:00,
2013-08-10 22:29:00,57.2,49.3,29.98,NNW,336,0.0,1.0,75,0.00,,,0.00,Wunderground v.1.15,2013-08-11 02:29:00,
2013-08-10 22:31:00,57.1,49.6,29.98,NNW,336,0.0,0.0,76,0.00,,,0.00,Wunderground v.1.15,2013-08-11 02:31:00,
2013-08-10 22:33:00,56.9,49.4,29.98,NNW,336,0.0,1.0,76,0.00,,,0.00,Wunderground v.1.15,2013-08-11 02:33:00,
2013-08-10 22:34:00,56.9,49.4,29.98,NNW,336,0.0,1.0,76,0.00,,,0.00,Wunderground v.1.15,2013-08-11 02:34:00,
2013-08-10 22:35:00,56.8,49.3,29.98,NNW,336,0.0,1.0,76,0.00,,,0.00,Wunderground v.1.15,2013-08-11 02:35:00,
2013-08-10 22:36:00,56.7,49.6,29.98,NNW,336,0.0,1.0,77,0.00,,,0.00,Wunderground v.1.15,2013-08-11 02:36:00,
2013-08-10 22:39:00,56.6,49.5,29.98,NNW,336,0.0,1.0,77,0.00,,,0.00,Wunderground v.1.15,2013-08-11 02:39:00,
2013-08-10 22:40:00,56.6,49.5,29.98,NNW,336,0.0,1.0,77,0.00,,,0.00,Wunderground v.1.15,2013-08-11 02:40:00,
2013-08-10 22:41:00,56.5,49.4,29.98,NNW,336,0.0,0.0,77,0.00,,,0.00,Wunderground v.1.15,2013-08-11 02:41:00,
2013-08-10 22:44:00,56.4,49.3,29.98,NNW,336,0.0,0.0,77,0.00,,,0.00,Wunderground v.1.15,2013-08-11 02:44:00,
2013-08-10 22:45:00,56.4,49.3,29.98,NNW,336,0.0,0.0,77,0.00,,,0.00,Wunderground v.1.15,2013-08-11 02:45:00,
2013-08-10 22:46:00,56.3,49.2,29.98,NNW,336,0.0,0.0,77,0.00,,,0.00,Wunderground v.1.15,2013-08-11 02:46:00,
2013-08-10 22:47:00,56.3,49.2,29.98,NNW,336,0.0,0.0,77,0.00,,,0.00,Wunderground v.1.15,2013-08-11 02:47:00,
2013-08-10 22:49:00,56.3,49.2,29.98,NNW,336,0.0,0.0,77,0.00,,,0.00,Wunderground v.1.15,2013-08-11 02:49:00,
2013-08-10 22:51:00,56.2,49.1,29.98,NNW,336,0.0,0.0,77,0.00,,,0.00,Wunderground v.1.15,2013-08-11 02:51:00,
2013-08-10 22:52:00,56.2,49.1,29.98,NNW,336,0.0,0.0,77,0.00,,,0.00,Wunderground v.1.15,2013-08-11 02:52:00,
2013-08-10 22:53:00,56.2,49.1,29.98,NNW,336,0.0,0.0,77,0.00,,,0.00,Wunderground v.1.15,2013-08-11 02:53:00,
2013-08-10 22:54:00,56.2,49.1,29.98,NNW,336,0.0,0.0,77,0.00,,,0.00,Wunderground v.1.15,2013-08-11 02:54:00,
2013-08-10 22:57:00,56.1,49.0,29.98,NNW,336,0.0,0.0,77,0.00,,,0.00,Wunderground v.1.15,2013-08-11 02:57:00,
2013-08-10 22:58:00,56.1,49.0,29.98,NNW,336,0.0,0.0,77,0.00,,,0.00,Wunderground v.1.15,2013-08-11 02:58:00,
2013-08-10 23:00:00,56.0,48.9,29.98,NNW,336,0.0,0.0,77,0.00,,,0.00,Wunderground v.1.15,2013-08-11 03:00:00,
2013-08-10 23:02:00,56.0,48.9,29.98,NNW,336,0.0,1.0,77,0.00,,,0.00,Wunderground v.1.15,2013-08-11 03:02:00,
2013-08-10 23:03:00,56.0,48.9,29.98,NNW,336,0.0,1.0,77,0.00,,,0.00,Wunderground v.1.15,2013-08-11 03:03:00,
2013-08-10 23:04:00,56.0,48.9,29.98,NNW,336,0.0,1.0,77,0.00,,,0.00,Wunderground v.1.15,2013-08-11 03:04:00,
2013-08-10 23:05:00,56.0,48.9,29.98,NNW,336,0.0,1.0,77,0.00,,,0.00,Wunderground v.1.15,2013-08-11 03:05:00,
2013-08-10 23:08:00,56.0,48.9,29.98,NNW,336,0.0,1.0,77,0.00,,,0.00,Wunderground v.1.15,2013-08-11 03:08:00,
2013-08-10 23:09:00,55.9,49.1,29.98,NNW,336,0.0,1.0,78,0.00,,,0.00,Wunderground v.1.15,2013-08-11 03:09:00,
2013-08-10 23:11:00,55.9,49.1,29.98,NNW,336,0.0,1.0,78,0.00,,,0.00,Wunderground v.1.15,2013-08-11 03:11:00,
2013-08-10 23:14:00,55.8,49.0,29.98,NNW,336,0.0,1.0,78,0.00,,,0.00,Wunderground v.1.15,2013-08-11 03:14:00,
2013-08-10 23:15:00,55.8,49.0,29.98,NNW,336,0.0,1.0,78,0.00,,,0.00,Wunderground v.1.15,2013-08-11 03:15:00,
2013-08-10 23:16:00,55.8,49.0,29.98,NNW,336,1.0,1.0,78,0.00,,,0.00,Wunderground v.1.15,2013-08-11 03:16:00,
2013-08-10 23:20:00,55.7,48.9,29.98,NNE,30,2.0,2.0,78,0.00,,,0.00,Wunderground v.1.15,2013-08-11 03:20:00,
2013-08-10 23:22:00,55.7,48.9,29.98,NW,318,0.0,0.0,78,0.00,,,0.00,Wunderground v.1.15,2013-08-11 03:22:00,
2013-08-10 23:23:00,55.7,48.9,29.98,NW,318,0.0,0.0,78,0.00,,,0.00,Wunderground v.1.15,2013-08-11 03:23:00,
2013-08-10 23:26:00,55.7,48.9,29.98,NNW,348,1.0,3.0,78,0.00,,,0.00,Wunderground v.1.15,2013-08-11 03:26:00,
2013-08-10 23:27:00,55.7,48.9,29.98,WNW,303,0.0,3.0,78,0.00,,,0.00,Wunderground v.1.15,2013-08-11 03:27:00,
2013-08-10 23:28:00,55.7,48.9,29.98,West,278,0.0,3.0,78,0.00,,,0.00,Wunderground v.1.15,2013-08-11 03:28:00,
2013-08-10 23:31:00,55.7,48.9,29.98,NW,313,0.0,0.0,78,0.00,,,0.00,Wunderground v.1.15,2013-08-11 03:31:00,
2013-08-10 23:33:00,55.7,48.9,29.98,NW,313,0.0,0.0,78,0.00,,,0.00,Wunderground v.1.15,2013-08-11 03:33:00,
2013-08-10 23:36:00,55.7,48.9,29.98,NNW,343,0.0,0.0,78,0.00,,,0.00,Wunderground v.1.15,2013-08-11 03:36:00,
2013-08-10 23:38:00,55.7,48.9,29.98,ENE,69,0.0,0.0,78,0.00,,,0.00,Wunderground v.1.15,2013-08-11 03:38:00,
2013-08-10 23:39:00,55.7,48.9,29.98,NW,319,2.0,2.0,78,0.00,,,0.00,Wunderground v.1.15,2013-08-11 03:39:00,
2013-08-10 23:42:00,55.6,48.5,29.98,West,281,0.0,0.0,77,0.00,,,0.00,Wunderground v.1.15,2013-08-11 03:42:00,
2013-08-10 23:44:00,55.6,48.5,29.98,West,281,0.0,0.0,77,0.00,,,0.00,Wunderground v.1.15,2013-08-11 03:44:00,
2013-08-10 23:47:00,55.5,48.4,29.98,NNW,333,0.0,1.0,77,0.00,,,0.00,Wunderground v.1.15,2013-08-11 03:47:00,
2013-08-10 23:49:00,55.5,48.4,29.98,WNW,284,0.0,5.0,77,0.00,,,0.00,Wunderground v.1.15,2013-08-11 03:49:00,
2013-08-10 23:50:00,55.5,48.4,29.98,WNW,284,0.0,5.0,77,0.00,,,0.00,Wunderground v.1.15,2013-08-11 03:50:00,
2013-08-10 23:52:00,55.5,48.4,29.98,WNW,292,0.0,0.0,77,0.00,,,0.00,Wunderground v.1.15,2013-08-11 03:52:00,
2013-08-10 23:55:00,55.5,48.4,29.98,WNW,290,0.0,1.0,77,0.00,,,0.00,Wunderground v.1.15,2013-08-11 03:55:00,
2013-08-10 23:58:00,55.4,48.3,29.99,WSW,246,0.0,1.0,77,0.00,,,0.00,Wunderground v.1.15,2013-08-11 03:58:00,